<?xml version="1.0" encoding="UTF-8" standalone="no" ?>
<gpx xmlns="http://www.topografix.com/GPX/1/1" xmlns:xsi="http://www.w3.org/2001/XMLSchema-instance" xsi:schemaLocation="http://www.topografix.com/GPX/1/1 http://www.topografix.com/GPX/1/1/gpx.xsd" version="1.1" creator="VisuGPX - https://www.visugpx.com">
  <metadata>
    <name>Randonnées Biertoises : plateau de Guirel</name>
    <desc><![CDATA[Randonnée près de Biert et Massat, dans le Couserans en Ariège (Pyrénées).
Ballade numéro 9 parcourue à l'envers du sens fléché.
Raccourci par Bellot au retour.]]></desc>
  </metadata>
  <trk>
    <name><![CDATA[13 août 2018 à 09:47:20]]></name>
    <cmt><![CDATA[13 août 2018 à 09:47:20]]></cmt>
    <trkseg>
      <trkpt lat="42.92523" lon="1.32503">
        <ele>976</ele>
        <time>2018-08-13T07:47:21Z</time>
      </trkpt>
      <trkpt lat="42.9253" lon="1.32498">
        <ele>972</ele>
        <time>2018-08-13T07:47:32Z</time>
      </trkpt>
      <trkpt lat="42.92536" lon="1.32498">
        <ele>972</ele>
        <time>2018-08-13T07:47:36Z</time>
      </trkpt>
      <trkpt lat="42.92542" lon="1.32494">
        <ele>966</ele>
        <time>2018-08-13T07:47:40Z</time>
      </trkpt>
      <trkpt lat="42.92552" lon="1.3249">
        <ele>964</ele>
        <time>2018-08-13T07:47:49Z</time>
      </trkpt>
      <trkpt lat="42.92557" lon="1.3249">
        <ele>964</ele>
        <time>2018-08-13T07:47:53Z</time>
      </trkpt>
      <trkpt lat="42.92566" lon="1.32484">
        <ele>964</ele>
        <time>2018-08-13T07:48:03Z</time>
      </trkpt>
      <trkpt lat="42.92575" lon="1.32482">
        <ele>964</ele>
        <time>2018-08-13T07:48:23Z</time>
      </trkpt>
      <trkpt lat="42.92581" lon="1.32484">
        <ele>964</ele>
        <time>2018-08-13T07:48:30Z</time>
      </trkpt>
      <trkpt lat="42.92592" lon="1.3248">
        <ele>962</ele>
        <time>2018-08-13T07:48:45Z</time>
      </trkpt>
      <trkpt lat="42.92597" lon="1.32478">
        <ele>962</ele>
        <time>2018-08-13T07:48:56Z</time>
      </trkpt>
      <trkpt lat="42.92612" lon="1.32468">
        <ele>961</ele>
        <time>2018-08-13T07:49:14Z</time>
      </trkpt>
      <trkpt lat="42.92638" lon="1.3245">
        <ele>961</ele>
        <time>2018-08-13T07:49:45Z</time>
      </trkpt>
      <trkpt lat="42.92647" lon="1.3245">
        <ele>960</ele>
        <time>2018-08-13T07:49:59Z</time>
      </trkpt>
      <trkpt lat="42.92659" lon="1.32436">
        <ele>957</ele>
        <time>2018-08-13T07:50:37Z</time>
      </trkpt>
      <trkpt lat="42.92673" lon="1.32416">
        <ele>952</ele>
        <time>2018-08-13T07:50:59Z</time>
      </trkpt>
      <trkpt lat="42.92682" lon="1.32411">
        <ele>950</ele>
        <time>2018-08-13T07:51:08Z</time>
      </trkpt>
      <trkpt lat="42.92699" lon="1.32388">
        <ele>944</ele>
        <time>2018-08-13T07:51:36Z</time>
      </trkpt>
      <trkpt lat="42.92716" lon="1.32381">
        <ele>941</ele>
        <time>2018-08-13T07:51:54Z</time>
      </trkpt>
      <trkpt lat="42.92725" lon="1.32381">
        <ele>939</ele>
        <time>2018-08-13T07:52:01Z</time>
      </trkpt>
      <trkpt lat="42.92733" lon="1.32375">
        <ele>938</ele>
        <time>2018-08-13T07:52:08Z</time>
      </trkpt>
      <trkpt lat="42.92747" lon="1.32371">
        <ele>936</ele>
        <time>2018-08-13T07:52:19Z</time>
      </trkpt>
      <trkpt lat="42.92778" lon="1.32382">
        <ele>934</ele>
        <time>2018-08-13T07:53:03Z</time>
      </trkpt>
      <trkpt lat="42.9278" lon="1.32364">
        <ele>932</ele>
        <time>2018-08-13T07:53:15Z</time>
      </trkpt>
      <trkpt lat="42.92771" lon="1.32328">
        <ele>929</ele>
        <time>2018-08-13T07:53:35Z</time>
      </trkpt>
      <trkpt lat="42.92761" lon="1.32314">
        <ele>929</ele>
        <time>2018-08-13T07:53:48Z</time>
      </trkpt>
      <trkpt lat="42.92751" lon="1.32281">
        <ele>929</ele>
        <time>2018-08-13T07:54:22Z</time>
      </trkpt>
      <trkpt lat="42.92745" lon="1.32265">
        <ele>930</ele>
        <time>2018-08-13T07:54:35Z</time>
      </trkpt>
      <trkpt lat="42.92743" lon="1.32246">
        <ele>931</ele>
        <time>2018-08-13T07:54:50Z</time>
      </trkpt>
      <trkpt lat="42.92738" lon="1.32226">
        <ele>931</ele>
        <time>2018-08-13T07:55:05Z</time>
      </trkpt>
      <trkpt lat="42.92725" lon="1.32206">
        <ele>932</ele>
        <time>2018-08-13T07:55:18Z</time>
      </trkpt>
      <trkpt lat="42.92721" lon="1.32193">
        <ele>933</ele>
        <time>2018-08-13T07:55:26Z</time>
      </trkpt>
      <trkpt lat="42.92694" lon="1.32155">
        <ele>935</ele>
        <time>2018-08-13T07:55:57Z</time>
      </trkpt>
      <trkpt lat="42.92688" lon="1.32147">
        <ele>935</ele>
        <time>2018-08-13T07:56:04Z</time>
      </trkpt>
      <trkpt lat="42.92679" lon="1.3214">
        <ele>936</ele>
        <time>2018-08-13T07:56:17Z</time>
      </trkpt>
      <trkpt lat="42.92673" lon="1.32139">
        <ele>935</ele>
        <time>2018-08-13T07:56:27Z</time>
      </trkpt>
      <trkpt lat="42.9267" lon="1.32133">
        <ele>935</ele>
        <time>2018-08-13T07:56:32Z</time>
      </trkpt>
      <trkpt lat="42.92672" lon="1.32121">
        <ele>935</ele>
        <time>2018-08-13T07:56:48Z</time>
      </trkpt>
      <trkpt lat="42.92674" lon="1.32115">
        <ele>936</ele>
        <time>2018-08-13T07:56:55Z</time>
      </trkpt>
      <trkpt lat="42.92679" lon="1.32114">
        <ele>935</ele>
        <time>2018-08-13T07:57:01Z</time>
      </trkpt>
      <trkpt lat="42.92682" lon="1.32107">
        <ele>935</ele>
        <time>2018-08-13T07:57:13Z</time>
      </trkpt>
      <trkpt lat="42.92687" lon="1.32103">
        <ele>935</ele>
        <time>2018-08-13T07:57:25Z</time>
      </trkpt>
      <trkpt lat="42.9269" lon="1.32099">
        <ele>935</ele>
        <time>2018-08-13T07:57:31Z</time>
      </trkpt>
      <trkpt lat="42.92704" lon="1.32086">
        <ele>934</ele>
        <time>2018-08-13T07:57:51Z</time>
      </trkpt>
      <trkpt lat="42.92712" lon="1.32079">
        <ele>933</ele>
        <time>2018-08-13T07:58:01Z</time>
      </trkpt>
      <trkpt lat="42.92714" lon="1.32072">
        <ele>932</ele>
        <time>2018-08-13T07:58:09Z</time>
      </trkpt>
      <trkpt lat="42.92721" lon="1.32061">
        <ele>932</ele>
        <time>2018-08-13T07:58:17Z</time>
      </trkpt>
      <trkpt lat="42.92738" lon="1.32046">
        <ele>930</ele>
        <time>2018-08-13T07:58:38Z</time>
      </trkpt>
      <trkpt lat="42.92747" lon="1.32042">
        <ele>929</ele>
        <time>2018-08-13T07:58:44Z</time>
      </trkpt>
      <trkpt lat="42.92754" lon="1.32035">
        <ele>928</ele>
        <time>2018-08-13T07:58:53Z</time>
      </trkpt>
      <trkpt lat="42.92785" lon="1.32002">
        <ele>926</ele>
        <time>2018-08-13T07:59:29Z</time>
      </trkpt>
      <trkpt lat="42.92792" lon="1.31995">
        <ele>926</ele>
        <time>2018-08-13T07:59:36Z</time>
      </trkpt>
      <trkpt lat="42.92802" lon="1.31992">
        <ele>925</ele>
        <time>2018-08-13T07:59:44Z</time>
      </trkpt>
      <trkpt lat="42.92811" lon="1.3199">
        <ele>924</ele>
        <time>2018-08-13T07:59:57Z</time>
      </trkpt>
      <trkpt lat="42.92808" lon="1.31973">
        <ele>924</ele>
        <time>2018-08-13T08:00:11Z</time>
      </trkpt>
      <trkpt lat="42.92782" lon="1.31957">
        <ele>923</ele>
        <time>2018-08-13T08:00:45Z</time>
      </trkpt>
      <trkpt lat="42.92763" lon="1.31956">
        <ele>921</ele>
        <time>2018-08-13T08:01:05Z</time>
      </trkpt>
      <trkpt lat="42.92751" lon="1.31936">
        <ele>921</ele>
        <time>2018-08-13T08:01:21Z</time>
      </trkpt>
      <trkpt lat="42.92744" lon="1.31918">
        <ele>922</ele>
        <time>2018-08-13T08:01:37Z</time>
      </trkpt>
      <trkpt lat="42.92735" lon="1.31895">
        <ele>922</ele>
        <time>2018-08-13T08:01:48Z</time>
      </trkpt>
      <trkpt lat="42.92725" lon="1.31889">
        <ele>922</ele>
        <time>2018-08-13T08:01:56Z</time>
      </trkpt>
      <trkpt lat="42.92718" lon="1.31883">
        <ele>923</ele>
        <time>2018-08-13T08:02:06Z</time>
      </trkpt>
      <trkpt lat="42.92724" lon="1.31864">
        <ele>925</ele>
        <time>2018-08-13T08:02:24Z</time>
      </trkpt>
      <trkpt lat="42.92728" lon="1.31849">
        <ele>925</ele>
        <time>2018-08-13T08:02:33Z</time>
      </trkpt>
      <trkpt lat="42.92727" lon="1.31836">
        <ele>925</ele>
        <time>2018-08-13T08:02:42Z</time>
      </trkpt>
      <trkpt lat="42.92723" lon="1.31809">
        <ele>926</ele>
        <time>2018-08-13T08:03:02Z</time>
      </trkpt>
      <trkpt lat="42.92715" lon="1.31802">
        <ele>927</ele>
        <time>2018-08-13T08:03:09Z</time>
      </trkpt>
      <trkpt lat="42.92706" lon="1.31801">
        <ele>928</ele>
        <time>2018-08-13T08:03:27Z</time>
      </trkpt>
      <trkpt lat="42.92697" lon="1.31803">
        <ele>924</ele>
        <time>2018-08-13T08:03:45Z</time>
      </trkpt>
      <trkpt lat="42.9269" lon="1.31795">
        <ele>919</ele>
        <time>2018-08-13T08:04:05Z</time>
      </trkpt>
      <trkpt lat="42.92679" lon="1.31799">
        <ele>915</ele>
        <time>2018-08-13T08:04:23Z</time>
      </trkpt>
      <trkpt lat="42.92664" lon="1.31807">
        <ele>909</ele>
        <time>2018-08-13T08:04:45Z</time>
      </trkpt>
      <trkpt lat="42.92656" lon="1.31813">
        <ele>904</ele>
        <time>2018-08-13T08:05:11Z</time>
      </trkpt>
      <trkpt lat="42.92648" lon="1.31802">
        <ele>901</ele>
        <time>2018-08-13T08:06:26Z</time>
      </trkpt>
      <trkpt lat="42.92657" lon="1.31788">
        <ele>901</ele>
        <time>2018-08-13T08:06:58Z</time>
      </trkpt>
      <trkpt lat="42.9266" lon="1.31777">
        <ele>901</ele>
        <time>2018-08-13T08:07:10Z</time>
      </trkpt>
      <trkpt lat="42.92667" lon="1.3176">
        <ele>902</ele>
        <time>2018-08-13T08:07:27Z</time>
      </trkpt>
      <trkpt lat="42.92676" lon="1.31722">
        <ele>902</ele>
        <time>2018-08-13T08:07:56Z</time>
      </trkpt>
      <trkpt lat="42.9268" lon="1.31711">
        <ele>903</ele>
        <time>2018-08-13T08:08:12Z</time>
      </trkpt>
      <trkpt lat="42.92692" lon="1.31689">
        <ele>902</ele>
        <time>2018-08-13T08:08:31Z</time>
      </trkpt>
      <trkpt lat="42.92698" lon="1.31674">
        <ele>903</ele>
        <time>2018-08-13T08:08:47Z</time>
      </trkpt>
      <trkpt lat="42.92702" lon="1.31657">
        <ele>903</ele>
        <time>2018-08-13T08:09:02Z</time>
      </trkpt>
      <trkpt lat="42.92709" lon="1.31637">
        <ele>903</ele>
        <time>2018-08-13T08:09:17Z</time>
      </trkpt>
      <trkpt lat="42.9271" lon="1.31623">
        <ele>903</ele>
        <time>2018-08-13T08:09:27Z</time>
      </trkpt>
      <trkpt lat="42.92712" lon="1.3161">
        <ele>903</ele>
        <time>2018-08-13T08:09:40Z</time>
      </trkpt>
      <trkpt lat="42.92714" lon="1.31595">
        <ele>903</ele>
        <time>2018-08-13T08:09:55Z</time>
      </trkpt>
      <trkpt lat="42.9272" lon="1.31585">
        <ele>903</ele>
        <time>2018-08-13T08:10:02Z</time>
      </trkpt>
      <trkpt lat="42.92724" lon="1.31567">
        <ele>904</ele>
        <time>2018-08-13T08:10:19Z</time>
      </trkpt>
      <trkpt lat="42.92731" lon="1.31559">
        <ele>904</ele>
        <time>2018-08-13T08:10:28Z</time>
      </trkpt>
      <trkpt lat="42.92743" lon="1.31519">
        <ele>905</ele>
        <time>2018-08-13T08:10:55Z</time>
      </trkpt>
      <trkpt lat="42.92752" lon="1.31512">
        <ele>904</ele>
        <time>2018-08-13T08:11:01Z</time>
      </trkpt>
      <trkpt lat="42.92758" lon="1.31504">
        <ele>905</ele>
        <time>2018-08-13T08:11:10Z</time>
      </trkpt>
      <trkpt lat="42.92759" lon="1.31487">
        <ele>905</ele>
        <time>2018-08-13T08:11:27Z</time>
      </trkpt>
      <trkpt lat="42.92763" lon="1.31475">
        <ele>905</ele>
        <time>2018-08-13T08:11:36Z</time>
      </trkpt>
      <trkpt lat="42.92769" lon="1.31464">
        <ele>906</ele>
        <time>2018-08-13T08:11:44Z</time>
      </trkpt>
      <trkpt lat="42.92764" lon="1.31458">
        <ele>907</ele>
        <time>2018-08-13T08:12:18Z</time>
      </trkpt>
      <trkpt lat="42.92753" lon="1.31461">
        <ele>908</ele>
        <time>2018-08-13T08:12:33Z</time>
      </trkpt>
      <trkpt lat="42.92732" lon="1.31461">
        <ele>906</ele>
        <time>2018-08-13T08:12:52Z</time>
      </trkpt>
      <trkpt lat="42.9272" lon="1.31465">
        <ele>906</ele>
        <time>2018-08-13T08:13:03Z</time>
      </trkpt>
      <trkpt lat="42.9269" lon="1.3148">
        <ele>904</ele>
        <time>2018-08-13T08:13:35Z</time>
      </trkpt>
      <trkpt lat="42.92681" lon="1.31484">
        <ele>904</ele>
        <time>2018-08-13T08:13:41Z</time>
      </trkpt>
      <trkpt lat="42.92673" lon="1.31489">
        <ele>905</ele>
        <time>2018-08-13T08:13:47Z</time>
      </trkpt>
      <trkpt lat="42.92664" lon="1.31497">
        <ele>905</ele>
        <time>2018-08-13T08:14:01Z</time>
      </trkpt>
      <trkpt lat="42.92657" lon="1.31505">
        <ele>906</ele>
        <time>2018-08-13T08:14:10Z</time>
      </trkpt>
      <trkpt lat="42.92649" lon="1.31512">
        <ele>905</ele>
        <time>2018-08-13T08:14:18Z</time>
      </trkpt>
      <trkpt lat="42.92637" lon="1.31522">
        <ele>906</ele>
        <time>2018-08-13T08:14:33Z</time>
      </trkpt>
      <trkpt lat="42.92629" lon="1.31527">
        <ele>907</ele>
        <time>2018-08-13T08:14:41Z</time>
      </trkpt>
      <trkpt lat="42.92623" lon="1.31536">
        <ele>907</ele>
        <time>2018-08-13T08:14:50Z</time>
      </trkpt>
      <trkpt lat="42.92618" lon="1.31547">
        <ele>906</ele>
        <time>2018-08-13T08:14:58Z</time>
      </trkpt>
      <trkpt lat="42.92599" lon="1.31563">
        <ele>902</ele>
        <time>2018-08-13T08:15:25Z</time>
      </trkpt>
      <trkpt lat="42.92586" lon="1.31568">
        <ele>900</ele>
        <time>2018-08-13T08:15:39Z</time>
      </trkpt>
      <trkpt lat="42.92577" lon="1.31566">
        <ele>898</ele>
        <time>2018-08-13T08:15:49Z</time>
      </trkpt>
      <trkpt lat="42.92568" lon="1.31573">
        <ele>898</ele>
        <time>2018-08-13T08:15:55Z</time>
      </trkpt>
      <trkpt lat="42.92563" lon="1.31585">
        <ele>898</ele>
        <time>2018-08-13T08:16:01Z</time>
      </trkpt>
      <trkpt lat="42.92555" lon="1.31592">
        <ele>897</ele>
        <time>2018-08-13T08:16:14Z</time>
      </trkpt>
      <trkpt lat="42.92543" lon="1.31602">
        <ele>897</ele>
        <time>2018-08-13T08:16:30Z</time>
      </trkpt>
      <trkpt lat="42.92537" lon="1.31612">
        <ele>896</ele>
        <time>2018-08-13T08:16:37Z</time>
      </trkpt>
      <trkpt lat="42.92523" lon="1.31646">
        <ele>893</ele>
        <time>2018-08-13T08:17:10Z</time>
      </trkpt>
      <trkpt lat="42.92518" lon="1.31653">
        <ele>895</ele>
        <time>2018-08-13T08:17:46Z</time>
      </trkpt>
      <trkpt lat="42.92512" lon="1.31655">
        <ele>895</ele>
        <time>2018-08-13T08:18:09Z</time>
      </trkpt>
      <trkpt lat="42.92504" lon="1.31663">
        <ele>893</ele>
        <time>2018-08-13T08:18:18Z</time>
      </trkpt>
      <trkpt lat="42.92504" lon="1.31671">
        <ele>893</ele>
        <time>2018-08-13T08:18:23Z</time>
      </trkpt>
      <trkpt lat="42.92497" lon="1.31681">
        <ele>891</ele>
        <time>2018-08-13T08:18:33Z</time>
      </trkpt>
      <trkpt lat="42.92495" lon="1.31689">
        <ele>890</ele>
        <time>2018-08-13T08:18:38Z</time>
      </trkpt>
      <trkpt lat="42.92495" lon="1.31696">
        <ele>890</ele>
        <time>2018-08-13T08:18:41Z</time>
      </trkpt>
      <trkpt lat="42.92491" lon="1.31708">
        <ele>888</ele>
        <time>2018-08-13T08:18:50Z</time>
      </trkpt>
      <trkpt lat="42.92487" lon="1.31712">
        <ele>887</ele>
        <time>2018-08-13T08:18:54Z</time>
      </trkpt>
      <trkpt lat="42.92484" lon="1.31718">
        <ele>887</ele>
        <time>2018-08-13T08:18:58Z</time>
      </trkpt>
      <trkpt lat="42.9248" lon="1.31721">
        <ele>886</ele>
        <time>2018-08-13T08:19:03Z</time>
      </trkpt>
      <trkpt lat="42.92474" lon="1.31723">
        <ele>885</ele>
        <time>2018-08-13T08:19:10Z</time>
      </trkpt>
      <trkpt lat="42.92455" lon="1.31739">
        <ele>883</ele>
        <time>2018-08-13T08:19:30Z</time>
      </trkpt>
      <trkpt lat="42.92451" lon="1.31744">
        <ele>883</ele>
        <time>2018-08-13T08:19:37Z</time>
      </trkpt>
      <trkpt lat="42.92442" lon="1.31748">
        <ele>883</ele>
        <time>2018-08-13T08:19:46Z</time>
      </trkpt>
      <trkpt lat="42.92437" lon="1.31751">
        <ele>882</ele>
        <time>2018-08-13T08:19:51Z</time>
      </trkpt>
      <trkpt lat="42.92422" lon="1.31754">
        <ele>882</ele>
        <time>2018-08-13T08:20:04Z</time>
      </trkpt>
      <trkpt lat="42.92412" lon="1.31755">
        <ele>882</ele>
        <time>2018-08-13T08:20:11Z</time>
      </trkpt>
      <trkpt lat="42.924" lon="1.31759">
        <ele>882</ele>
        <time>2018-08-13T08:20:25Z</time>
      </trkpt>
      <trkpt lat="42.92389" lon="1.3176">
        <ele>882</ele>
        <time>2018-08-13T08:20:33Z</time>
      </trkpt>
      <trkpt lat="42.92371" lon="1.31765">
        <ele>882</ele>
        <time>2018-08-13T08:20:46Z</time>
      </trkpt>
      <trkpt lat="42.92342" lon="1.31765">
        <ele>880</ele>
        <time>2018-08-13T08:21:18Z</time>
      </trkpt>
      <trkpt lat="42.92316" lon="1.31756">
        <ele>877</ele>
        <time>2018-08-13T08:21:42Z</time>
      </trkpt>
      <trkpt lat="42.92306" lon="1.31755">
        <ele>876</ele>
        <time>2018-08-13T08:21:50Z</time>
      </trkpt>
      <trkpt lat="42.92286" lon="1.31758">
        <ele>874</ele>
        <time>2018-08-13T08:22:05Z</time>
      </trkpt>
      <trkpt lat="42.92277" lon="1.31761">
        <ele>874</ele>
        <time>2018-08-13T08:22:23Z</time>
      </trkpt>
      <trkpt lat="42.9227" lon="1.3177">
        <ele>874</ele>
        <time>2018-08-13T08:22:36Z</time>
      </trkpt>
      <trkpt lat="42.92261" lon="1.31768">
        <ele>872</ele>
        <time>2018-08-13T08:22:44Z</time>
      </trkpt>
      <trkpt lat="42.92254" lon="1.3176">
        <ele>871</ele>
        <time>2018-08-13T08:22:52Z</time>
      </trkpt>
      <trkpt lat="42.92234" lon="1.31761">
        <ele>868</ele>
        <time>2018-08-13T08:23:10Z</time>
      </trkpt>
      <trkpt lat="42.92207" lon="1.31772">
        <ele>865</ele>
        <time>2018-08-13T08:23:30Z</time>
      </trkpt>
      <trkpt lat="42.92188" lon="1.31764">
        <ele>862</ele>
        <time>2018-08-13T08:23:48Z</time>
      </trkpt>
      <trkpt lat="42.92179" lon="1.3176">
        <ele>861</ele>
        <time>2018-08-13T08:23:55Z</time>
      </trkpt>
      <trkpt lat="42.9217" lon="1.31758">
        <ele>860</ele>
        <time>2018-08-13T08:24:04Z</time>
      </trkpt>
      <trkpt lat="42.92161" lon="1.31753">
        <ele>859</ele>
        <time>2018-08-13T08:24:13Z</time>
      </trkpt>
      <trkpt lat="42.92131" lon="1.3175">
        <ele>855</ele>
        <time>2018-08-13T08:24:39Z</time>
      </trkpt>
      <trkpt lat="42.9212" lon="1.31742">
        <ele>853</ele>
        <time>2018-08-13T08:24:57Z</time>
      </trkpt>
      <trkpt lat="42.92113" lon="1.31738">
        <ele>852</ele>
        <time>2018-08-13T08:25:12Z</time>
      </trkpt>
      <trkpt lat="42.92109" lon="1.31729">
        <ele>851</ele>
        <time>2018-08-13T08:25:20Z</time>
      </trkpt>
      <trkpt lat="42.92109" lon="1.31693">
        <ele>848</ele>
        <time>2018-08-13T08:25:42Z</time>
      </trkpt>
      <trkpt lat="42.92111" lon="1.31685">
        <ele>847</ele>
        <time>2018-08-13T08:25:46Z</time>
      </trkpt>
      <trkpt lat="42.92113" lon="1.31649">
        <ele>844</ele>
        <time>2018-08-13T08:26:10Z</time>
      </trkpt>
      <trkpt lat="42.92118" lon="1.31636">
        <ele>842</ele>
        <time>2018-08-13T08:26:18Z</time>
      </trkpt>
      <trkpt lat="42.92127" lon="1.31618">
        <ele>840</ele>
        <time>2018-08-13T08:26:34Z</time>
      </trkpt>
      <trkpt lat="42.92128" lon="1.31611">
        <ele>840</ele>
        <time>2018-08-13T08:26:38Z</time>
      </trkpt>
      <trkpt lat="42.9213" lon="1.31605">
        <ele>840</ele>
        <time>2018-08-13T08:26:42Z</time>
      </trkpt>
      <trkpt lat="42.92133" lon="1.31599">
        <ele>841</ele>
        <time>2018-08-13T08:26:46Z</time>
      </trkpt>
      <trkpt lat="42.9215" lon="1.31573">
        <ele>842</ele>
        <time>2018-08-13T08:27:09Z</time>
      </trkpt>
      <trkpt lat="42.92171" lon="1.31528">
        <ele>845</ele>
        <time>2018-08-13T08:27:43Z</time>
      </trkpt>
      <trkpt lat="42.92175" lon="1.31506">
        <ele>846</ele>
        <time>2018-08-13T08:27:55Z</time>
      </trkpt>
      <trkpt lat="42.92174" lon="1.31498">
        <ele>846</ele>
        <time>2018-08-13T08:28:04Z</time>
      </trkpt>
      <trkpt lat="42.92179" lon="1.31492">
        <ele>847</ele>
        <time>2018-08-13T08:28:13Z</time>
      </trkpt>
      <trkpt lat="42.92185" lon="1.31489">
        <ele>848</ele>
        <time>2018-08-13T08:28:18Z</time>
      </trkpt>
      <trkpt lat="42.92188" lon="1.31482">
        <ele>848</ele>
        <time>2018-08-13T08:28:22Z</time>
      </trkpt>
      <trkpt lat="42.92194" lon="1.31472">
        <ele>848</ele>
        <time>2018-08-13T08:28:29Z</time>
      </trkpt>
      <trkpt lat="42.92199" lon="1.31462">
        <ele>849</ele>
        <time>2018-08-13T08:28:37Z</time>
      </trkpt>
      <trkpt lat="42.92198" lon="1.31451">
        <ele>849</ele>
        <time>2018-08-13T08:28:51Z</time>
      </trkpt>
      <trkpt lat="42.92156" lon="1.3145">
        <ele>853</ele>
        <time>2018-08-13T08:29:28Z</time>
      </trkpt>
      <trkpt lat="42.92146" lon="1.31452">
        <ele>853</ele>
        <time>2018-08-13T08:29:34Z</time>
      </trkpt>
      <trkpt lat="42.92131" lon="1.31464">
        <ele>855</ele>
        <time>2018-08-13T08:29:51Z</time>
      </trkpt>
      <trkpt lat="42.9212" lon="1.31454">
        <ele>856</ele>
        <time>2018-08-13T08:30:06Z</time>
      </trkpt>
      <trkpt lat="42.92111" lon="1.31457">
        <ele>856</ele>
        <time>2018-08-13T08:30:42Z</time>
      </trkpt>
      <trkpt lat="42.92086" lon="1.31453">
        <ele>858</ele>
        <time>2018-08-13T08:31:11Z</time>
      </trkpt>
      <trkpt lat="42.92076" lon="1.31453">
        <ele>859</ele>
        <time>2018-08-13T08:31:21Z</time>
      </trkpt>
      <trkpt lat="42.92057" lon="1.31452">
        <ele>861</ele>
        <time>2018-08-13T08:31:53Z</time>
      </trkpt>
      <trkpt lat="42.92039" lon="1.31443">
        <ele>862</ele>
        <time>2018-08-13T08:32:09Z</time>
      </trkpt>
      <trkpt lat="42.9203" lon="1.31442">
        <ele>861</ele>
        <time>2018-08-13T08:32:36Z</time>
      </trkpt>
      <trkpt lat="42.92021" lon="1.31438">
        <ele>861</ele>
        <time>2018-08-13T08:32:58Z</time>
      </trkpt>
      <trkpt lat="42.92009" lon="1.31432">
        <ele>861</ele>
        <time>2018-08-13T08:34:04Z</time>
      </trkpt>
      <trkpt lat="42.91982" lon="1.31408">
        <ele>862</ele>
        <time>2018-08-13T08:34:39Z</time>
      </trkpt>
      <trkpt lat="42.91962" lon="1.31378">
        <ele>863</ele>
        <time>2018-08-13T08:35:09Z</time>
      </trkpt>
      <trkpt lat="42.91959" lon="1.3137">
        <ele>864</ele>
        <time>2018-08-13T08:35:17Z</time>
      </trkpt>
      <trkpt lat="42.91962" lon="1.31357">
        <ele>864</ele>
        <time>2018-08-13T08:35:26Z</time>
      </trkpt>
      <trkpt lat="42.91975" lon="1.3132">
        <ele>866</ele>
        <time>2018-08-13T08:35:51Z</time>
      </trkpt>
      <trkpt lat="42.91976" lon="1.31313">
        <ele>867</ele>
        <time>2018-08-13T08:35:55Z</time>
      </trkpt>
      <trkpt lat="42.91978" lon="1.31307">
        <ele>867</ele>
        <time>2018-08-13T08:35:59Z</time>
      </trkpt>
      <trkpt lat="42.9198" lon="1.31301">
        <ele>868</ele>
        <time>2018-08-13T08:36:04Z</time>
      </trkpt>
      <trkpt lat="42.91983" lon="1.31288">
        <ele>868</ele>
        <time>2018-08-13T08:36:15Z</time>
      </trkpt>
      <trkpt lat="42.91991" lon="1.3128">
        <ele>869</ele>
        <time>2018-08-13T08:36:22Z</time>
      </trkpt>
      <trkpt lat="42.91984" lon="1.31272">
        <ele>869</ele>
        <time>2018-08-13T08:36:29Z</time>
      </trkpt>
      <trkpt lat="42.91968" lon="1.31258">
        <ele>868</ele>
        <time>2018-08-13T08:36:43Z</time>
      </trkpt>
      <trkpt lat="42.91959" lon="1.31256">
        <ele>867</ele>
        <time>2018-08-13T08:36:51Z</time>
      </trkpt>
      <trkpt lat="42.91939" lon="1.31245">
        <ele>867</ele>
        <time>2018-08-13T08:37:14Z</time>
      </trkpt>
      <trkpt lat="42.91929" lon="1.31245">
        <ele>866</ele>
        <time>2018-08-13T08:37:22Z</time>
      </trkpt>
      <trkpt lat="42.9192" lon="1.31242">
        <ele>866</ele>
        <time>2018-08-13T08:37:28Z</time>
      </trkpt>
      <trkpt lat="42.919" lon="1.31238">
        <ele>865</ele>
        <time>2018-08-13T08:37:49Z</time>
      </trkpt>
      <trkpt lat="42.91884" lon="1.31226">
        <ele>867</ele>
        <time>2018-08-13T08:38:08Z</time>
      </trkpt>
      <trkpt lat="42.91876" lon="1.31211">
        <ele>868</ele>
        <time>2018-08-13T08:38:35Z</time>
      </trkpt>
      <trkpt lat="42.91863" lon="1.31187">
        <ele>872</ele>
        <time>2018-08-13T08:39:08Z</time>
      </trkpt>
      <trkpt lat="42.91855" lon="1.31149">
        <ele>873</ele>
        <time>2018-08-13T08:39:32Z</time>
      </trkpt>
      <trkpt lat="42.91854" lon="1.31127">
        <ele>874</ele>
        <time>2018-08-13T08:39:49Z</time>
      </trkpt>
      <trkpt lat="42.91855" lon="1.31114">
        <ele>875</ele>
        <time>2018-08-13T08:39:57Z</time>
      </trkpt>
      <trkpt lat="42.9185" lon="1.31103">
        <ele>876</ele>
        <time>2018-08-13T08:40:06Z</time>
      </trkpt>
      <trkpt lat="42.91841" lon="1.31092">
        <ele>876</ele>
        <time>2018-08-13T08:40:18Z</time>
      </trkpt>
      <trkpt lat="42.91839" lon="1.31069">
        <ele>878</ele>
        <time>2018-08-13T08:40:31Z</time>
      </trkpt>
      <trkpt lat="42.91839" lon="1.31063">
        <ele>878</ele>
        <time>2018-08-13T08:40:34Z</time>
      </trkpt>
      <trkpt lat="42.91837" lon="1.31054">
        <ele>878</ele>
        <time>2018-08-13T08:40:42Z</time>
      </trkpt>
      <trkpt lat="42.91834" lon="1.31047">
        <ele>878</ele>
        <time>2018-08-13T08:41:12Z</time>
      </trkpt>
      <trkpt lat="42.91833" lon="1.31037">
        <ele>878</ele>
        <time>2018-08-13T08:41:24Z</time>
      </trkpt>
      <trkpt lat="42.91833" lon="1.3103">
        <ele>877</ele>
        <time>2018-08-13T08:41:28Z</time>
      </trkpt>
      <trkpt lat="42.91831" lon="1.31017">
        <ele>877</ele>
        <time>2018-08-13T08:41:36Z</time>
      </trkpt>
      <trkpt lat="42.91829" lon="1.31012">
        <ele>877</ele>
        <time>2018-08-13T08:41:40Z</time>
      </trkpt>
      <trkpt lat="42.91829" lon="1.31003">
        <ele>876</ele>
        <time>2018-08-13T08:41:48Z</time>
      </trkpt>
      <trkpt lat="42.9183" lon="1.30989">
        <ele>876</ele>
        <time>2018-08-13T08:41:56Z</time>
      </trkpt>
      <trkpt lat="42.91827" lon="1.30984">
        <ele>875</ele>
        <time>2018-08-13T08:42:00Z</time>
      </trkpt>
      <trkpt lat="42.91822" lon="1.30982">
        <ele>875</ele>
        <time>2018-08-13T08:42:03Z</time>
      </trkpt>
      <trkpt lat="42.91817" lon="1.30982">
        <ele>875</ele>
        <time>2018-08-13T08:42:07Z</time>
      </trkpt>
      <trkpt lat="42.91801" lon="1.30975">
        <ele>876</ele>
        <time>2018-08-13T08:42:27Z</time>
      </trkpt>
      <trkpt lat="42.91796" lon="1.30975">
        <ele>876</ele>
        <time>2018-08-13T08:42:36Z</time>
      </trkpt>
      <trkpt lat="42.91793" lon="1.30968">
        <ele>876</ele>
        <time>2018-08-13T08:42:54Z</time>
      </trkpt>
      <trkpt lat="42.91782" lon="1.30967">
        <ele>877</ele>
        <time>2018-08-13T08:43:09Z</time>
      </trkpt>
      <trkpt lat="42.91773" lon="1.30963">
        <ele>879</ele>
        <time>2018-08-13T08:43:22Z</time>
      </trkpt>
      <trkpt lat="42.91768" lon="1.3095">
        <ele>882</ele>
        <time>2018-08-13T08:43:47Z</time>
      </trkpt>
      <trkpt lat="42.91762" lon="1.3094">
        <ele>883</ele>
        <time>2018-08-13T08:44:01Z</time>
      </trkpt>
      <trkpt lat="42.91744" lon="1.3093">
        <ele>884</ele>
        <time>2018-08-13T08:44:18Z</time>
      </trkpt>
      <trkpt lat="42.91734" lon="1.30929">
        <ele>885</ele>
        <time>2018-08-13T08:44:30Z</time>
      </trkpt>
      <trkpt lat="42.91715" lon="1.30917">
        <ele>885</ele>
        <time>2018-08-13T08:44:46Z</time>
      </trkpt>
      <trkpt lat="42.91711" lon="1.30916">
        <ele>885</ele>
        <time>2018-08-13T08:44:50Z</time>
      </trkpt>
      <trkpt lat="42.91704" lon="1.30914">
        <ele>885</ele>
        <time>2018-08-13T08:44:58Z</time>
      </trkpt>
      <trkpt lat="42.917" lon="1.30909">
        <ele>884</ele>
        <time>2018-08-13T08:45:03Z</time>
      </trkpt>
      <trkpt lat="42.91697" lon="1.30903">
        <ele>884</ele>
        <time>2018-08-13T08:45:07Z</time>
      </trkpt>
      <trkpt lat="42.91685" lon="1.30887">
        <ele>884</ele>
        <time>2018-08-13T08:45:21Z</time>
      </trkpt>
      <trkpt lat="42.91681" lon="1.30884">
        <ele>884</ele>
        <time>2018-08-13T08:45:26Z</time>
      </trkpt>
      <trkpt lat="42.91674" lon="1.30874">
        <ele>884</ele>
        <time>2018-08-13T08:45:37Z</time>
      </trkpt>
      <trkpt lat="42.91648" lon="1.30865">
        <ele>886</ele>
        <time>2018-08-13T08:46:04Z</time>
      </trkpt>
      <trkpt lat="42.91632" lon="1.30854">
        <ele>888</ele>
        <time>2018-08-13T08:46:23Z</time>
      </trkpt>
      <trkpt lat="42.91623" lon="1.30851">
        <ele>888</ele>
        <time>2018-08-13T08:46:31Z</time>
      </trkpt>
      <trkpt lat="42.91605" lon="1.30842">
        <ele>888</ele>
        <time>2018-08-13T08:46:49Z</time>
      </trkpt>
      <trkpt lat="42.91587" lon="1.30834">
        <ele>888</ele>
        <time>2018-08-13T08:47:22Z</time>
      </trkpt>
      <trkpt lat="42.91574" lon="1.30825">
        <ele>887</ele>
        <time>2018-08-13T08:47:37Z</time>
      </trkpt>
      <trkpt lat="42.9155" lon="1.30806">
        <ele>886</ele>
        <time>2018-08-13T08:48:05Z</time>
      </trkpt>
      <trkpt lat="42.91539" lon="1.30784">
        <ele>886</ele>
        <time>2018-08-13T08:48:23Z</time>
      </trkpt>
      <trkpt lat="42.9153" lon="1.30769">
        <ele>886</ele>
        <time>2018-08-13T08:48:39Z</time>
      </trkpt>
      <trkpt lat="42.91527" lon="1.30755">
        <ele>886</ele>
        <time>2018-08-13T08:48:50Z</time>
      </trkpt>
      <trkpt lat="42.9152" lon="1.30743">
        <ele>885</ele>
        <time>2018-08-13T08:49:00Z</time>
      </trkpt>
      <trkpt lat="42.91513" lon="1.30736">
        <ele>885</ele>
        <time>2018-08-13T08:49:07Z</time>
      </trkpt>
      <trkpt lat="42.91507" lon="1.30725">
        <ele>885</ele>
        <time>2018-08-13T08:49:15Z</time>
      </trkpt>
      <trkpt lat="42.91506" lon="1.30712">
        <ele>885</ele>
        <time>2018-08-13T08:49:22Z</time>
      </trkpt>
      <trkpt lat="42.91501" lon="1.30689">
        <ele>885</ele>
        <time>2018-08-13T08:49:39Z</time>
      </trkpt>
      <trkpt lat="42.91494" lon="1.3068">
        <ele>885</ele>
        <time>2018-08-13T08:49:47Z</time>
      </trkpt>
      <trkpt lat="42.91465" lon="1.30647">
        <ele>885</ele>
        <time>2018-08-13T08:50:21Z</time>
      </trkpt>
      <trkpt lat="42.91461" lon="1.30634">
        <ele>885</ele>
        <time>2018-08-13T08:50:44Z</time>
      </trkpt>
      <trkpt lat="42.91463" lon="1.30641">
        <ele>885</ele>
        <time>2018-08-13T08:51:56Z</time>
      </trkpt>
      <trkpt lat="42.91461" lon="1.30637">
        <ele>884</ele>
        <time>2018-08-13T08:56:56Z</time>
      </trkpt>
      <trkpt lat="42.9146" lon="1.30636">
        <ele>884</ele>
        <time>2018-08-13T09:00:50Z</time>
      </trkpt>
      <trkpt lat="42.91458" lon="1.3063">
        <ele>884</ele>
        <time>2018-08-13T09:01:37Z</time>
      </trkpt>
      <trkpt lat="42.91453" lon="1.3062">
        <ele>884</ele>
        <time>2018-08-13T09:01:46Z</time>
      </trkpt>
      <trkpt lat="42.91452" lon="1.30585">
        <ele>882</ele>
        <time>2018-08-13T09:02:05Z</time>
      </trkpt>
      <trkpt lat="42.9145" lon="1.30578">
        <ele>882</ele>
        <time>2018-08-13T09:02:09Z</time>
      </trkpt>
      <trkpt lat="42.91446" lon="1.30573">
        <ele>882</ele>
        <time>2018-08-13T09:02:13Z</time>
      </trkpt>
      <trkpt lat="42.91444" lon="1.30567">
        <ele>882</ele>
        <time>2018-08-13T09:02:18Z</time>
      </trkpt>
      <trkpt lat="42.91445" lon="1.30527">
        <ele>882</ele>
        <time>2018-08-13T09:02:42Z</time>
      </trkpt>
      <trkpt lat="42.91441" lon="1.30515">
        <ele>882</ele>
        <time>2018-08-13T09:02:50Z</time>
      </trkpt>
      <trkpt lat="42.91436" lon="1.30504">
        <ele>881</ele>
        <time>2018-08-13T09:02:58Z</time>
      </trkpt>
      <trkpt lat="42.91427" lon="1.30486">
        <ele>882</ele>
        <time>2018-08-13T09:03:13Z</time>
      </trkpt>
      <trkpt lat="42.91417" lon="1.30487">
        <ele>882</ele>
        <time>2018-08-13T09:03:22Z</time>
      </trkpt>
      <trkpt lat="42.91386" lon="1.30517">
        <ele>881</ele>
        <time>2018-08-13T09:03:55Z</time>
      </trkpt>
      <trkpt lat="42.91362" lon="1.30541">
        <ele>879</ele>
        <time>2018-08-13T09:04:18Z</time>
      </trkpt>
      <trkpt lat="42.91358" lon="1.30543">
        <ele>878</ele>
        <time>2018-08-13T09:04:22Z</time>
      </trkpt>
      <trkpt lat="42.9134" lon="1.30559">
        <ele>878</ele>
        <time>2018-08-13T09:04:41Z</time>
      </trkpt>
      <trkpt lat="42.91326" lon="1.30567">
        <ele>876</ele>
        <time>2018-08-13T09:04:53Z</time>
      </trkpt>
      <trkpt lat="42.91303" lon="1.30581">
        <ele>875</ele>
        <time>2018-08-13T09:05:18Z</time>
      </trkpt>
      <trkpt lat="42.91298" lon="1.30581">
        <ele>875</ele>
        <time>2018-08-13T09:05:26Z</time>
      </trkpt>
      <trkpt lat="42.91283" lon="1.30573">
        <ele>875</ele>
        <time>2018-08-13T09:05:39Z</time>
      </trkpt>
      <trkpt lat="42.91273" lon="1.30572">
        <ele>875</ele>
        <time>2018-08-13T09:05:48Z</time>
      </trkpt>
      <trkpt lat="42.91277" lon="1.3057">
        <ele>877</ele>
        <time>2018-08-13T09:06:16Z</time>
      </trkpt>
      <trkpt lat="42.91287" lon="1.30569">
        <ele>880</ele>
        <time>2018-08-13T09:06:28Z</time>
      </trkpt>
      <trkpt lat="42.91305" lon="1.3057">
        <ele>882</ele>
        <time>2018-08-13T09:06:50Z</time>
      </trkpt>
      <trkpt lat="42.9131" lon="1.30568">
        <ele>883</ele>
        <time>2018-08-13T09:06:55Z</time>
      </trkpt>
      <trkpt lat="42.91315" lon="1.30565">
        <ele>883</ele>
        <time>2018-08-13T09:07:00Z</time>
      </trkpt>
      <trkpt lat="42.9134" lon="1.3054">
        <ele>887</ele>
        <time>2018-08-13T09:07:35Z</time>
      </trkpt>
      <trkpt lat="42.91356" lon="1.30525">
        <ele>890</ele>
        <time>2018-08-13T09:08:01Z</time>
      </trkpt>
      <trkpt lat="42.91364" lon="1.30514">
        <ele>891</ele>
        <time>2018-08-13T09:08:12Z</time>
      </trkpt>
      <trkpt lat="42.91368" lon="1.30511">
        <ele>892</ele>
        <time>2018-08-13T09:08:16Z</time>
      </trkpt>
      <trkpt lat="42.91388" lon="1.30481">
        <ele>894</ele>
        <time>2018-08-13T09:08:44Z</time>
      </trkpt>
      <trkpt lat="42.91393" lon="1.30478">
        <ele>894</ele>
        <time>2018-08-13T09:08:49Z</time>
      </trkpt>
      <trkpt lat="42.91396" lon="1.30473">
        <ele>894</ele>
        <time>2018-08-13T09:08:54Z</time>
      </trkpt>
      <trkpt lat="42.91413" lon="1.30462">
        <ele>895</ele>
        <time>2018-08-13T09:09:16Z</time>
      </trkpt>
      <trkpt lat="42.91419" lon="1.3046">
        <ele>896</ele>
        <time>2018-08-13T09:09:23Z</time>
      </trkpt>
      <trkpt lat="42.91423" lon="1.30457">
        <ele>896</ele>
        <time>2018-08-13T09:09:28Z</time>
      </trkpt>
      <trkpt lat="42.9145" lon="1.30445">
        <ele>900</ele>
        <time>2018-08-13T09:09:59Z</time>
      </trkpt>
      <trkpt lat="42.91462" lon="1.30434">
        <ele>902</ele>
        <time>2018-08-13T09:10:15Z</time>
      </trkpt>
      <trkpt lat="42.91464" lon="1.30428">
        <ele>903</ele>
        <time>2018-08-13T09:10:20Z</time>
      </trkpt>
      <trkpt lat="42.91465" lon="1.30422">
        <ele>904</ele>
        <time>2018-08-13T09:10:31Z</time>
      </trkpt>
      <trkpt lat="42.9147" lon="1.30418">
        <ele>904</ele>
        <time>2018-08-13T09:11:01Z</time>
      </trkpt>
      <trkpt lat="42.91472" lon="1.30428">
        <ele>905</ele>
        <time>2018-08-13T09:12:05Z</time>
      </trkpt>
      <trkpt lat="42.9148" lon="1.30433">
        <ele>906</ele>
        <time>2018-08-13T09:12:13Z</time>
      </trkpt>
      <trkpt lat="42.91491" lon="1.30436">
        <ele>908</ele>
        <time>2018-08-13T09:12:27Z</time>
      </trkpt>
      <trkpt lat="42.91506" lon="1.30448">
        <ele>911</ele>
        <time>2018-08-13T09:12:46Z</time>
      </trkpt>
      <trkpt lat="42.9151" lon="1.30453">
        <ele>911</ele>
        <time>2018-08-13T09:12:53Z</time>
      </trkpt>
      <trkpt lat="42.91532" lon="1.30465">
        <ele>915</ele>
        <time>2018-08-13T09:13:21Z</time>
      </trkpt>
      <trkpt lat="42.91543" lon="1.30467">
        <ele>917</ele>
        <time>2018-08-13T09:13:57Z</time>
      </trkpt>
      <trkpt lat="42.91562" lon="1.30465">
        <ele>920</ele>
        <time>2018-08-13T09:14:20Z</time>
      </trkpt>
      <trkpt lat="42.91569" lon="1.30464">
        <ele>923</ele>
        <time>2018-08-13T09:14:40Z</time>
      </trkpt>
      <trkpt lat="42.91589" lon="1.30477">
        <ele>928</ele>
        <time>2018-08-13T09:15:15Z</time>
      </trkpt>
      <trkpt lat="42.91596" lon="1.30478">
        <ele>929</ele>
        <time>2018-08-13T09:15:30Z</time>
      </trkpt>
      <trkpt lat="42.91602" lon="1.30481">
        <ele>931</ele>
        <time>2018-08-13T09:15:41Z</time>
      </trkpt>
      <trkpt lat="42.91614" lon="1.30484">
        <ele>934</ele>
        <time>2018-08-13T09:16:03Z</time>
      </trkpt>
      <trkpt lat="42.9162" lon="1.30491">
        <ele>936</ele>
        <time>2018-08-13T09:16:21Z</time>
      </trkpt>
      <trkpt lat="42.91626" lon="1.30493">
        <ele>938</ele>
        <time>2018-08-13T09:16:33Z</time>
      </trkpt>
      <trkpt lat="42.91635" lon="1.30502">
        <ele>941</ele>
        <time>2018-08-13T09:16:57Z</time>
      </trkpt>
      <trkpt lat="42.9164" lon="1.30505">
        <ele>942</ele>
        <time>2018-08-13T09:17:09Z</time>
      </trkpt>
      <trkpt lat="42.91645" lon="1.30508">
        <ele>943</ele>
        <time>2018-08-13T09:17:21Z</time>
      </trkpt>
      <trkpt lat="42.9166" lon="1.30511">
        <ele>948</ele>
        <time>2018-08-13T09:17:51Z</time>
      </trkpt>
      <trkpt lat="42.91669" lon="1.30515">
        <ele>949</ele>
        <time>2018-08-13T09:18:08Z</time>
      </trkpt>
      <trkpt lat="42.91683" lon="1.30521">
        <ele>951</ele>
        <time>2018-08-13T09:18:30Z</time>
      </trkpt>
      <trkpt lat="42.9169" lon="1.30523">
        <ele>953</ele>
        <time>2018-08-13T09:18:42Z</time>
      </trkpt>
      <trkpt lat="42.91694" lon="1.3053">
        <ele>954</ele>
        <time>2018-08-13T09:18:54Z</time>
      </trkpt>
      <trkpt lat="42.91699" lon="1.30535">
        <ele>955</ele>
        <time>2018-08-13T09:19:02Z</time>
      </trkpt>
      <trkpt lat="42.91703" lon="1.30536">
        <ele>955</ele>
        <time>2018-08-13T09:19:06Z</time>
      </trkpt>
      <trkpt lat="42.9171" lon="1.3054">
        <ele>955</ele>
        <time>2018-08-13T09:19:22Z</time>
      </trkpt>
      <trkpt lat="42.91726" lon="1.30546">
        <ele>957</ele>
        <time>2018-08-13T09:19:39Z</time>
      </trkpt>
      <trkpt lat="42.91742" lon="1.30555">
        <ele>958</ele>
        <time>2018-08-13T09:19:57Z</time>
      </trkpt>
      <trkpt lat="42.91761" lon="1.30558">
        <ele>961</ele>
        <time>2018-08-13T09:20:21Z</time>
      </trkpt>
      <trkpt lat="42.91776" lon="1.30568">
        <ele>963</ele>
        <time>2018-08-13T09:20:42Z</time>
      </trkpt>
      <trkpt lat="42.9179" lon="1.30572">
        <ele>964</ele>
        <time>2018-08-13T09:21:00Z</time>
      </trkpt>
      <trkpt lat="42.91798" lon="1.30573">
        <ele>965</ele>
        <time>2018-08-13T09:21:08Z</time>
      </trkpt>
      <trkpt lat="42.91813" lon="1.30577">
        <ele>967</ele>
        <time>2018-08-13T09:21:27Z</time>
      </trkpt>
      <trkpt lat="42.91818" lon="1.3058">
        <ele>968</ele>
        <time>2018-08-13T09:21:35Z</time>
      </trkpt>
      <trkpt lat="42.91826" lon="1.30579">
        <ele>969</ele>
        <time>2018-08-13T09:21:47Z</time>
      </trkpt>
      <trkpt lat="42.91848" lon="1.30595">
        <ele>972</ele>
        <time>2018-08-13T09:22:19Z</time>
      </trkpt>
      <trkpt lat="42.91878" lon="1.30607">
        <ele>975</ele>
        <time>2018-08-13T09:22:53Z</time>
      </trkpt>
      <trkpt lat="42.91904" lon="1.30618">
        <ele>976</ele>
        <time>2018-08-13T09:23:26Z</time>
      </trkpt>
      <trkpt lat="42.91907" lon="1.30613">
        <ele>976</ele>
        <time>2018-08-13T09:23:45Z</time>
      </trkpt>
      <trkpt lat="42.91912" lon="1.30616">
        <ele>976</ele>
        <time>2018-08-13T09:23:49Z</time>
      </trkpt>
      <trkpt lat="42.91916" lon="1.30619">
        <ele>977</ele>
        <time>2018-08-13T09:23:54Z</time>
      </trkpt>
      <trkpt lat="42.91942" lon="1.30627">
        <ele>979</ele>
        <time>2018-08-13T09:24:26Z</time>
      </trkpt>
      <trkpt lat="42.91947" lon="1.30629">
        <ele>980</ele>
        <time>2018-08-13T09:24:34Z</time>
      </trkpt>
      <trkpt lat="42.9196" lon="1.30639">
        <ele>982</ele>
        <time>2018-08-13T09:24:58Z</time>
      </trkpt>
      <trkpt lat="42.91967" lon="1.3064">
        <ele>983</ele>
        <time>2018-08-13T09:25:10Z</time>
      </trkpt>
      <trkpt lat="42.9199" lon="1.30647">
        <ele>988</ele>
        <time>2018-08-13T09:25:46Z</time>
      </trkpt>
      <trkpt lat="42.92014" lon="1.30656">
        <ele>992</ele>
        <time>2018-08-13T09:26:22Z</time>
      </trkpt>
      <trkpt lat="42.92032" lon="1.30661">
        <ele>993</ele>
        <time>2018-08-13T09:26:43Z</time>
      </trkpt>
      <trkpt lat="42.92043" lon="1.30669">
        <ele>995</ele>
        <time>2018-08-13T09:27:14Z</time>
      </trkpt>
      <trkpt lat="42.92049" lon="1.30675">
        <ele>996</ele>
        <time>2018-08-13T09:27:26Z</time>
      </trkpt>
      <trkpt lat="42.92057" lon="1.30679">
        <ele>998</ele>
        <time>2018-08-13T09:27:38Z</time>
      </trkpt>
      <trkpt lat="42.92064" lon="1.30679">
        <ele>999</ele>
        <time>2018-08-13T09:27:50Z</time>
      </trkpt>
      <trkpt lat="42.9207" lon="1.30683">
        <ele>1000</ele>
        <time>2018-08-13T09:28:08Z</time>
      </trkpt>
      <trkpt lat="42.92075" lon="1.30685">
        <ele>1001</ele>
        <time>2018-08-13T09:28:20Z</time>
      </trkpt>
      <trkpt lat="42.92079" lon="1.30689">
        <ele>1003</ele>
        <time>2018-08-13T09:28:32Z</time>
      </trkpt>
      <trkpt lat="42.92084" lon="1.30691">
        <ele>1005</ele>
        <time>2018-08-13T09:28:44Z</time>
      </trkpt>
      <trkpt lat="42.9209" lon="1.30694">
        <ele>1006</ele>
        <time>2018-08-13T09:28:50Z</time>
      </trkpt>
      <trkpt lat="42.92095" lon="1.30693">
        <ele>1006</ele>
        <time>2018-08-13T09:28:58Z</time>
      </trkpt>
      <trkpt lat="42.921" lon="1.30697">
        <ele>1008</ele>
        <time>2018-08-13T09:29:35Z</time>
      </trkpt>
      <trkpt lat="42.92105" lon="1.30698">
        <ele>1011</ele>
        <time>2018-08-13T09:29:50Z</time>
      </trkpt>
      <trkpt lat="42.92108" lon="1.30703">
        <ele>1012</ele>
        <time>2018-08-13T09:30:05Z</time>
      </trkpt>
      <trkpt lat="42.92104" lon="1.30724">
        <ele>1014</ele>
        <time>2018-08-13T09:31:07Z</time>
      </trkpt>
      <trkpt lat="42.921" lon="1.30735">
        <ele>1015</ele>
        <time>2018-08-13T09:31:33Z</time>
      </trkpt>
      <trkpt lat="42.92094" lon="1.30739">
        <ele>1014</ele>
        <time>2018-08-13T09:31:45Z</time>
      </trkpt>
      <trkpt lat="42.92089" lon="1.30745">
        <ele>1014</ele>
        <time>2018-08-13T09:31:57Z</time>
      </trkpt>
      <trkpt lat="42.92086" lon="1.30752">
        <ele>1014</ele>
        <time>2018-08-13T09:32:09Z</time>
      </trkpt>
      <trkpt lat="42.92083" lon="1.30765">
        <ele>1015</ele>
        <time>2018-08-13T09:32:21Z</time>
      </trkpt>
      <trkpt lat="42.92084" lon="1.30779">
        <ele>1015</ele>
        <time>2018-08-13T09:32:32Z</time>
      </trkpt>
      <trkpt lat="42.92085" lon="1.30786">
        <ele>1015</ele>
        <time>2018-08-13T09:32:37Z</time>
      </trkpt>
      <trkpt lat="42.92086" lon="1.30792">
        <ele>1015</ele>
        <time>2018-08-13T09:32:41Z</time>
      </trkpt>
      <trkpt lat="42.92085" lon="1.30798">
        <ele>1016</ele>
        <time>2018-08-13T09:32:45Z</time>
      </trkpt>
      <trkpt lat="42.92083" lon="1.30805">
        <ele>1016</ele>
        <time>2018-08-13T09:32:54Z</time>
      </trkpt>
      <trkpt lat="42.9209" lon="1.30842">
        <ele>1019</ele>
        <time>2018-08-13T09:33:36Z</time>
      </trkpt>
      <trkpt lat="42.92101" lon="1.30878">
        <ele>1021</ele>
        <time>2018-08-13T09:34:13Z</time>
      </trkpt>
      <trkpt lat="42.92107" lon="1.30902">
        <ele>1023</ele>
        <time>2018-08-13T09:34:37Z</time>
      </trkpt>
      <trkpt lat="42.92108" lon="1.30909">
        <ele>1024</ele>
        <time>2018-08-13T09:34:49Z</time>
      </trkpt>
      <trkpt lat="42.92112" lon="1.30914">
        <ele>1025</ele>
        <time>2018-08-13T09:35:01Z</time>
      </trkpt>
      <trkpt lat="42.92121" lon="1.30922">
        <ele>1025</ele>
        <time>2018-08-13T09:36:13Z</time>
      </trkpt>
      <trkpt lat="42.92123" lon="1.30944">
        <ele>1026</ele>
        <time>2018-08-13T09:36:45Z</time>
      </trkpt>
      <trkpt lat="42.92126" lon="1.30957">
        <ele>1027</ele>
        <time>2018-08-13T09:36:54Z</time>
      </trkpt>
      <trkpt lat="42.92129" lon="1.30962">
        <ele>1027</ele>
        <time>2018-08-13T09:36:59Z</time>
      </trkpt>
      <trkpt lat="42.92134" lon="1.30966">
        <ele>1028</ele>
        <time>2018-08-13T09:37:07Z</time>
      </trkpt>
      <trkpt lat="42.92139" lon="1.30974">
        <ele>1028</ele>
        <time>2018-08-13T09:37:18Z</time>
      </trkpt>
      <trkpt lat="42.92144" lon="1.30977">
        <ele>1029</ele>
        <time>2018-08-13T09:37:25Z</time>
      </trkpt>
      <trkpt lat="42.9215" lon="1.30983">
        <ele>1030</ele>
        <time>2018-08-13T09:37:36Z</time>
      </trkpt>
      <trkpt lat="42.92155" lon="1.30987">
        <ele>1030</ele>
        <time>2018-08-13T09:37:41Z</time>
      </trkpt>
      <trkpt lat="42.92163" lon="1.30993">
        <ele>1031</ele>
        <time>2018-08-13T09:37:46Z</time>
      </trkpt>
      <trkpt lat="42.92168" lon="1.30994">
        <ele>1031</ele>
        <time>2018-08-13T09:37:49Z</time>
      </trkpt>
      <trkpt lat="42.92172" lon="1.30997">
        <ele>1031</ele>
        <time>2018-08-13T09:37:53Z</time>
      </trkpt>
      <trkpt lat="42.92181" lon="1.31003">
        <ele>1032</ele>
        <time>2018-08-13T09:38:06Z</time>
      </trkpt>
      <trkpt lat="42.92186" lon="1.31003">
        <ele>1033</ele>
        <time>2018-08-13T09:38:13Z</time>
      </trkpt>
      <trkpt lat="42.92192" lon="1.31006">
        <ele>1033</ele>
        <time>2018-08-13T09:38:21Z</time>
      </trkpt>
      <trkpt lat="42.92198" lon="1.31005">
        <ele>1034</ele>
        <time>2018-08-13T09:38:26Z</time>
      </trkpt>
      <trkpt lat="42.92203" lon="1.31001">
        <ele>1034</ele>
        <time>2018-08-13T09:38:36Z</time>
      </trkpt>
      <trkpt lat="42.92208" lon="1.31002">
        <ele>1034</ele>
        <time>2018-08-13T09:38:42Z</time>
      </trkpt>
      <trkpt lat="42.92212" lon="1.31006">
        <ele>1035</ele>
        <time>2018-08-13T09:38:48Z</time>
      </trkpt>
      <trkpt lat="42.92216" lon="1.31014">
        <ele>1035</ele>
        <time>2018-08-13T09:39:00Z</time>
      </trkpt>
      <trkpt lat="42.92223" lon="1.3101">
        <ele>1036</ele>
        <time>2018-08-13T09:39:12Z</time>
      </trkpt>
      <trkpt lat="42.9223" lon="1.31024">
        <ele>1037</ele>
        <time>2018-08-13T09:41:38Z</time>
      </trkpt>
      <trkpt lat="42.9224" lon="1.31031">
        <ele>1039</ele>
        <time>2018-08-13T09:41:50Z</time>
      </trkpt>
      <trkpt lat="42.92248" lon="1.31035">
        <ele>1041</ele>
        <time>2018-08-13T09:42:02Z</time>
      </trkpt>
      <trkpt lat="42.92265" lon="1.31042">
        <ele>1043</ele>
        <time>2018-08-13T09:42:24Z</time>
      </trkpt>
      <trkpt lat="42.9227" lon="1.31043">
        <ele>1044</ele>
        <time>2018-08-13T09:42:32Z</time>
      </trkpt>
      <trkpt lat="42.92275" lon="1.31045">
        <ele>1044</ele>
        <time>2018-08-13T09:42:39Z</time>
      </trkpt>
      <trkpt lat="42.9228" lon="1.31045">
        <ele>1045</ele>
        <time>2018-08-13T09:42:45Z</time>
      </trkpt>
      <trkpt lat="42.92285" lon="1.31046">
        <ele>1045</ele>
        <time>2018-08-13T09:42:50Z</time>
      </trkpt>
      <trkpt lat="42.92314" lon="1.31041">
        <ele>1046</ele>
        <time>2018-08-13T09:43:27Z</time>
      </trkpt>
      <trkpt lat="42.92341" lon="1.31037">
        <ele>1047</ele>
        <time>2018-08-13T09:43:57Z</time>
      </trkpt>
      <trkpt lat="42.92348" lon="1.31031">
        <ele>1048</ele>
        <time>2018-08-13T09:44:05Z</time>
      </trkpt>
      <trkpt lat="42.92362" lon="1.31029">
        <ele>1047</ele>
        <time>2018-08-13T09:44:22Z</time>
      </trkpt>
      <trkpt lat="42.92375" lon="1.31035">
        <ele>1046</ele>
        <time>2018-08-13T09:44:37Z</time>
      </trkpt>
      <trkpt lat="42.92391" lon="1.3104">
        <ele>1048</ele>
        <time>2018-08-13T09:44:57Z</time>
      </trkpt>
      <trkpt lat="42.924" lon="1.31047">
        <ele>1048</ele>
        <time>2018-08-13T09:45:08Z</time>
      </trkpt>
      <trkpt lat="42.92406" lon="1.3106">
        <ele>1047</ele>
        <time>2018-08-13T09:45:20Z</time>
      </trkpt>
      <trkpt lat="42.92422" lon="1.31081">
        <ele>1045</ele>
        <time>2018-08-13T09:45:45Z</time>
      </trkpt>
      <trkpt lat="42.92427" lon="1.31083">
        <ele>1044</ele>
        <time>2018-08-13T09:45:50Z</time>
      </trkpt>
      <trkpt lat="42.92442" lon="1.31097">
        <ele>1041</ele>
        <time>2018-08-13T09:46:10Z</time>
      </trkpt>
      <trkpt lat="42.92446" lon="1.31099">
        <ele>1041</ele>
        <time>2018-08-13T09:46:14Z</time>
      </trkpt>
      <trkpt lat="42.92454" lon="1.311">
        <ele>1041</ele>
        <time>2018-08-13T09:46:23Z</time>
      </trkpt>
      <trkpt lat="42.92461" lon="1.31099">
        <ele>1040</ele>
        <time>2018-08-13T09:46:31Z</time>
      </trkpt>
      <trkpt lat="42.92477" lon="1.311">
        <ele>1039</ele>
        <time>2018-08-13T09:46:51Z</time>
      </trkpt>
      <trkpt lat="42.92484" lon="1.31098">
        <ele>1039</ele>
        <time>2018-08-13T09:47:01Z</time>
      </trkpt>
      <trkpt lat="42.92491" lon="1.31096">
        <ele>1039</ele>
        <time>2018-08-13T09:47:14Z</time>
      </trkpt>
      <trkpt lat="42.92498" lon="1.31098">
        <ele>1038</ele>
        <time>2018-08-13T09:47:25Z</time>
      </trkpt>
      <trkpt lat="42.92508" lon="1.31101">
        <ele>1038</ele>
        <time>2018-08-13T09:47:35Z</time>
      </trkpt>
      <trkpt lat="42.92528" lon="1.31096">
        <ele>1037</ele>
        <time>2018-08-13T09:47:54Z</time>
      </trkpt>
      <trkpt lat="42.92539" lon="1.31097">
        <ele>1036</ele>
        <time>2018-08-13T09:48:10Z</time>
      </trkpt>
      <trkpt lat="42.92557" lon="1.31083">
        <ele>1034</ele>
        <time>2018-08-13T09:48:28Z</time>
      </trkpt>
      <trkpt lat="42.92573" lon="1.31082">
        <ele>1034</ele>
        <time>2018-08-13T09:48:42Z</time>
      </trkpt>
      <trkpt lat="42.92581" lon="1.31096">
        <ele>1033</ele>
        <time>2018-08-13T09:48:59Z</time>
      </trkpt>
      <trkpt lat="42.92601" lon="1.31112">
        <ele>1031</ele>
        <time>2018-08-13T09:49:28Z</time>
      </trkpt>
      <trkpt lat="42.92603" lon="1.31134">
        <ele>1034</ele>
        <time>2018-08-13T09:50:06Z</time>
      </trkpt>
      <trkpt lat="42.92608" lon="1.31144">
        <ele>1035</ele>
        <time>2018-08-13T09:50:13Z</time>
      </trkpt>
      <trkpt lat="42.92607" lon="1.31157">
        <ele>1035</ele>
        <time>2018-08-13T09:50:23Z</time>
      </trkpt>
      <trkpt lat="42.92612" lon="1.31185">
        <ele>1036</ele>
        <time>2018-08-13T09:50:49Z</time>
      </trkpt>
      <trkpt lat="42.92612" lon="1.31198">
        <ele>1037</ele>
        <time>2018-08-13T09:50:57Z</time>
      </trkpt>
      <trkpt lat="42.92614" lon="1.31211">
        <ele>1036</ele>
        <time>2018-08-13T09:51:03Z</time>
      </trkpt>
      <trkpt lat="42.92617" lon="1.31222">
        <ele>1037</ele>
        <time>2018-08-13T09:51:11Z</time>
      </trkpt>
      <trkpt lat="42.9262" lon="1.31237">
        <ele>1037</ele>
        <time>2018-08-13T09:51:22Z</time>
      </trkpt>
      <trkpt lat="42.92625" lon="1.31248">
        <ele>1035</ele>
        <time>2018-08-13T09:51:31Z</time>
      </trkpt>
      <trkpt lat="42.92637" lon="1.31251">
        <ele>1033</ele>
        <time>2018-08-13T09:51:54Z</time>
      </trkpt>
      <trkpt lat="42.9265" lon="1.31248">
        <ele>1031</ele>
        <time>2018-08-13T09:52:13Z</time>
      </trkpt>
      <trkpt lat="42.92677" lon="1.31246">
        <ele>1030</ele>
        <time>2018-08-13T09:52:47Z</time>
      </trkpt>
      <trkpt lat="42.9269" lon="1.31244">
        <ele>1031</ele>
        <time>2018-08-13T09:53:03Z</time>
      </trkpt>
      <trkpt lat="42.92698" lon="1.31238">
        <ele>1031</ele>
        <time>2018-08-13T09:53:11Z</time>
      </trkpt>
      <trkpt lat="42.92715" lon="1.31237">
        <ele>1031</ele>
        <time>2018-08-13T09:53:31Z</time>
      </trkpt>
      <trkpt lat="42.92727" lon="1.31239">
        <ele>1031</ele>
        <time>2018-08-13T09:53:45Z</time>
      </trkpt>
      <trkpt lat="42.92735" lon="1.31238">
        <ele>1031</ele>
        <time>2018-08-13T09:53:54Z</time>
      </trkpt>
      <trkpt lat="42.9274" lon="1.3124">
        <ele>1031</ele>
        <time>2018-08-13T09:53:59Z</time>
      </trkpt>
      <trkpt lat="42.92746" lon="1.3124">
        <ele>1031</ele>
        <time>2018-08-13T09:54:04Z</time>
      </trkpt>
      <trkpt lat="42.92781" lon="1.3123">
        <ele>1028</ele>
        <time>2018-08-13T09:54:41Z</time>
      </trkpt>
      <trkpt lat="42.92789" lon="1.31219">
        <ele>1027</ele>
        <time>2018-08-13T09:54:52Z</time>
      </trkpt>
      <trkpt lat="42.92794" lon="1.31215">
        <ele>1027</ele>
        <time>2018-08-13T09:55:30Z</time>
      </trkpt>
      <trkpt lat="42.92799" lon="1.31206">
        <ele>1026</ele>
        <time>2018-08-13T09:55:41Z</time>
      </trkpt>
      <trkpt lat="42.92803" lon="1.31203">
        <ele>1026</ele>
        <time>2018-08-13T09:55:46Z</time>
      </trkpt>
      <trkpt lat="42.92809" lon="1.31202">
        <ele>1026</ele>
        <time>2018-08-13T09:55:54Z</time>
      </trkpt>
      <trkpt lat="42.92813" lon="1.31208">
        <ele>1025</ele>
        <time>2018-08-13T09:55:59Z</time>
      </trkpt>
      <trkpt lat="42.92819" lon="1.31209">
        <ele>1024</ele>
        <time>2018-08-13T09:56:06Z</time>
      </trkpt>
      <trkpt lat="42.92823" lon="1.31205">
        <ele>1024</ele>
        <time>2018-08-13T09:56:11Z</time>
      </trkpt>
      <trkpt lat="42.92839" lon="1.31195">
        <ele>1023</ele>
        <time>2018-08-13T09:56:30Z</time>
      </trkpt>
      <trkpt lat="42.92862" lon="1.31183">
        <ele>1022</ele>
        <time>2018-08-13T09:57:02Z</time>
      </trkpt>
      <trkpt lat="42.92872" lon="1.31179">
        <ele>1022</ele>
        <time>2018-08-13T09:57:12Z</time>
      </trkpt>
      <trkpt lat="42.92879" lon="1.31169">
        <ele>1022</ele>
        <time>2018-08-13T09:57:21Z</time>
      </trkpt>
      <trkpt lat="42.92905" lon="1.3115">
        <ele>1022</ele>
        <time>2018-08-13T09:57:51Z</time>
      </trkpt>
      <trkpt lat="42.92913" lon="1.31142">
        <ele>1023</ele>
        <time>2018-08-13T09:58:05Z</time>
      </trkpt>
      <trkpt lat="42.92921" lon="1.31133">
        <ele>1024</ele>
        <time>2018-08-13T09:58:14Z</time>
      </trkpt>
      <trkpt lat="42.92928" lon="1.31127">
        <ele>1026</ele>
        <time>2018-08-13T09:58:33Z</time>
      </trkpt>
      <trkpt lat="42.92937" lon="1.31129">
        <ele>1026</ele>
        <time>2018-08-13T09:58:41Z</time>
      </trkpt>
      <trkpt lat="42.92952" lon="1.31129">
        <ele>1028</ele>
        <time>2018-08-13T09:58:59Z</time>
      </trkpt>
      <trkpt lat="42.92969" lon="1.3115">
        <ele>1031</ele>
        <time>2018-08-13T09:59:26Z</time>
      </trkpt>
      <trkpt lat="42.92977" lon="1.31159">
        <ele>1032</ele>
        <time>2018-08-13T09:59:41Z</time>
      </trkpt>
      <trkpt lat="42.92983" lon="1.31169">
        <ele>1033</ele>
        <time>2018-08-13T09:59:50Z</time>
      </trkpt>
      <trkpt lat="42.92997" lon="1.31172">
        <ele>1036</ele>
        <time>2018-08-13T10:00:09Z</time>
      </trkpt>
      <trkpt lat="42.93002" lon="1.31183">
        <ele>1038</ele>
        <time>2018-08-13T10:00:33Z</time>
      </trkpt>
      <trkpt lat="42.93004" lon="1.3121">
        <ele>1041</ele>
        <time>2018-08-13T10:00:58Z</time>
      </trkpt>
      <trkpt lat="42.93012" lon="1.31221">
        <ele>1044</ele>
        <time>2018-08-13T10:01:24Z</time>
      </trkpt>
      <trkpt lat="42.93017" lon="1.31229">
        <ele>1045</ele>
        <time>2018-08-13T10:01:36Z</time>
      </trkpt>
      <trkpt lat="42.93016" lon="1.31229">
        <ele>1046</ele>
        <time>2018-08-13T10:02:24Z</time>
      </trkpt>
      <trkpt lat="42.9301" lon="1.31215">
        <ele>1042</ele>
        <time>2018-08-13T10:02:42Z</time>
      </trkpt>
      <trkpt lat="42.93007" lon="1.31211">
        <ele>1040</ele>
        <time>2018-08-13T10:02:50Z</time>
      </trkpt>
      <trkpt lat="42.93004" lon="1.31206">
        <ele>1039</ele>
        <time>2018-08-13T10:02:56Z</time>
      </trkpt>
      <trkpt lat="42.92986" lon="1.31186">
        <ele>1034</ele>
        <time>2018-08-13T10:03:21Z</time>
      </trkpt>
      <trkpt lat="42.92981" lon="1.31174">
        <ele>1033</ele>
        <time>2018-08-13T10:03:28Z</time>
      </trkpt>
      <trkpt lat="42.92977" lon="1.31167">
        <ele>1031</ele>
        <time>2018-08-13T10:03:35Z</time>
      </trkpt>
      <trkpt lat="42.92959" lon="1.31149">
        <ele>1028</ele>
        <time>2018-08-13T10:03:56Z</time>
      </trkpt>
      <trkpt lat="42.92954" lon="1.31142">
        <ele>1027</ele>
        <time>2018-08-13T10:04:02Z</time>
      </trkpt>
      <trkpt lat="42.9295" lon="1.31137">
        <ele>1026</ele>
        <time>2018-08-13T10:04:06Z</time>
      </trkpt>
      <trkpt lat="42.92936" lon="1.31127">
        <ele>1025</ele>
        <time>2018-08-13T10:04:17Z</time>
      </trkpt>
      <trkpt lat="42.92931" lon="1.31123">
        <ele>1024</ele>
        <time>2018-08-13T10:04:25Z</time>
      </trkpt>
      <trkpt lat="42.92919" lon="1.31133">
        <ele>1023</ele>
        <time>2018-08-13T10:05:14Z</time>
      </trkpt>
      <trkpt lat="42.92917" lon="1.31144">
        <ele>1019</ele>
        <time>2018-08-13T10:08:17Z</time>
      </trkpt>
      <trkpt lat="42.92927" lon="1.31175">
        <ele>1014</ele>
        <time>2018-08-13T10:08:49Z</time>
      </trkpt>
      <trkpt lat="42.92936" lon="1.31196">
        <ele>1011</ele>
        <time>2018-08-13T10:09:16Z</time>
      </trkpt>
      <trkpt lat="42.92931" lon="1.31209">
        <ele>1010</ele>
        <time>2018-08-13T10:09:36Z</time>
      </trkpt>
      <trkpt lat="42.92929" lon="1.31222">
        <ele>1008</ele>
        <time>2018-08-13T10:10:06Z</time>
      </trkpt>
      <trkpt lat="42.92936" lon="1.31235">
        <ele>1007</ele>
        <time>2018-08-13T10:10:12Z</time>
      </trkpt>
      <trkpt lat="42.92932" lon="1.31257">
        <ele>1006</ele>
        <time>2018-08-13T10:10:30Z</time>
      </trkpt>
      <trkpt lat="42.92927" lon="1.31277">
        <ele>1003</ele>
        <time>2018-08-13T10:10:50Z</time>
      </trkpt>
      <trkpt lat="42.92925" lon="1.31286">
        <ele>1002</ele>
        <time>2018-08-13T10:11:00Z</time>
      </trkpt>
      <trkpt lat="42.92924" lon="1.31293">
        <ele>1002</ele>
        <time>2018-08-13T10:11:05Z</time>
      </trkpt>
      <trkpt lat="42.92915" lon="1.31306">
        <ele>999</ele>
        <time>2018-08-13T10:11:22Z</time>
      </trkpt>
      <trkpt lat="42.9291" lon="1.31308">
        <ele>999</ele>
        <time>2018-08-13T10:11:26Z</time>
      </trkpt>
      <trkpt lat="42.92903" lon="1.31324">
        <ele>996</ele>
        <time>2018-08-13T10:11:47Z</time>
      </trkpt>
      <trkpt lat="42.92902" lon="1.31333">
        <ele>996</ele>
        <time>2018-08-13T10:11:54Z</time>
      </trkpt>
      <trkpt lat="42.92903" lon="1.31348">
        <ele>995</ele>
        <time>2018-08-13T10:12:09Z</time>
      </trkpt>
      <trkpt lat="42.92905" lon="1.31356">
        <ele>995</ele>
        <time>2018-08-13T10:12:28Z</time>
      </trkpt>
      <trkpt lat="42.929" lon="1.31354">
        <ele>994</ele>
        <time>2018-08-13T10:12:34Z</time>
      </trkpt>
      <trkpt lat="42.92895" lon="1.31361">
        <ele>990</ele>
        <time>2018-08-13T10:12:44Z</time>
      </trkpt>
      <trkpt lat="42.92894" lon="1.31368">
        <ele>990</ele>
        <time>2018-08-13T10:12:52Z</time>
      </trkpt>
      <trkpt lat="42.9289" lon="1.31372">
        <ele>988</ele>
        <time>2018-08-13T10:12:59Z</time>
      </trkpt>
      <trkpt lat="42.92886" lon="1.31369">
        <ele>987</ele>
        <time>2018-08-13T10:13:14Z</time>
      </trkpt>
      <trkpt lat="42.92876" lon="1.31358">
        <ele>983</ele>
        <time>2018-08-13T10:13:34Z</time>
      </trkpt>
      <trkpt lat="42.92872" lon="1.31366">
        <ele>981</ele>
        <time>2018-08-13T10:13:40Z</time>
      </trkpt>
      <trkpt lat="42.92866" lon="1.31371">
        <ele>980</ele>
        <time>2018-08-13T10:13:50Z</time>
      </trkpt>
      <trkpt lat="42.92867" lon="1.31399">
        <ele>977</ele>
        <time>2018-08-13T10:14:20Z</time>
      </trkpt>
      <trkpt lat="42.9286" lon="1.31398">
        <ele>970</ele>
        <time>2018-08-13T10:15:55Z</time>
      </trkpt>
      <trkpt lat="42.92852" lon="1.31403">
        <ele>967</ele>
        <time>2018-08-13T10:16:05Z</time>
      </trkpt>
      <trkpt lat="42.92857" lon="1.31419">
        <ele>965</ele>
        <time>2018-08-13T10:16:34Z</time>
      </trkpt>
      <trkpt lat="42.92863" lon="1.31428">
        <ele>965</ele>
        <time>2018-08-13T10:16:55Z</time>
      </trkpt>
      <trkpt lat="42.92853" lon="1.31436">
        <ele>964</ele>
        <time>2018-08-13T10:17:43Z</time>
      </trkpt>
      <trkpt lat="42.9285" lon="1.31442">
        <ele>963</ele>
        <time>2018-08-13T10:17:55Z</time>
      </trkpt>
      <trkpt lat="42.92851" lon="1.31449">
        <ele>964</ele>
        <time>2018-08-13T10:18:13Z</time>
      </trkpt>
      <trkpt lat="42.92851" lon="1.3146">
        <ele>961</ele>
        <time>2018-08-13T10:18:55Z</time>
      </trkpt>
      <trkpt lat="42.92853" lon="1.31465">
        <ele>960</ele>
        <time>2018-08-13T10:19:04Z</time>
      </trkpt>
      <trkpt lat="42.9285" lon="1.31471">
        <ele>960</ele>
        <time>2018-08-13T10:19:40Z</time>
      </trkpt>
      <trkpt lat="42.92861" lon="1.31486">
        <ele>960</ele>
        <time>2018-08-13T10:20:24Z</time>
      </trkpt>
      <trkpt lat="42.92873" lon="1.31481">
        <ele>967</ele>
        <time>2018-08-13T10:20:47Z</time>
      </trkpt>
      <trkpt lat="42.92871" lon="1.31487">
        <ele>968</ele>
        <time>2018-08-13T10:21:57Z</time>
      </trkpt>
      <trkpt lat="42.92877" lon="1.31506">
        <ele>967</ele>
        <time>2018-08-13T10:22:30Z</time>
      </trkpt>
      <trkpt lat="42.9286" lon="1.31505">
        <ele>967</ele>
        <time>2018-08-13T10:22:52Z</time>
      </trkpt>
      <trkpt lat="42.92849" lon="1.31515">
        <ele>966</ele>
        <time>2018-08-13T10:23:05Z</time>
      </trkpt>
      <trkpt lat="42.92838" lon="1.31521">
        <ele>967</ele>
        <time>2018-08-13T10:23:23Z</time>
      </trkpt>
      <trkpt lat="42.92829" lon="1.31526">
        <ele>967</ele>
        <time>2018-08-13T10:23:41Z</time>
      </trkpt>
      <trkpt lat="42.92828" lon="1.3154">
        <ele>965</ele>
        <time>2018-08-13T10:24:06Z</time>
      </trkpt>
      <trkpt lat="42.92818" lon="1.31554">
        <ele>965</ele>
        <time>2018-08-13T10:24:22Z</time>
      </trkpt>
      <trkpt lat="42.92814" lon="1.31568">
        <ele>963</ele>
        <time>2018-08-13T10:24:41Z</time>
      </trkpt>
      <trkpt lat="42.92797" lon="1.31569">
        <ele>960</ele>
        <time>2018-08-13T10:25:05Z</time>
      </trkpt>
      <trkpt lat="42.92787" lon="1.31574">
        <ele>956</ele>
        <time>2018-08-13T10:25:55Z</time>
      </trkpt>
      <trkpt lat="42.92781" lon="1.31587">
        <ele>954</ele>
        <time>2018-08-13T10:26:19Z</time>
      </trkpt>
      <trkpt lat="42.92778" lon="1.316">
        <ele>953</ele>
        <time>2018-08-13T10:26:49Z</time>
      </trkpt>
      <trkpt lat="42.9277" lon="1.31606">
        <ele>954</ele>
        <time>2018-08-13T10:27:06Z</time>
      </trkpt>
      <trkpt lat="42.92772" lon="1.3162">
        <ele>956</ele>
        <time>2018-08-13T10:27:31Z</time>
      </trkpt>
      <trkpt lat="42.92767" lon="1.31632">
        <ele>956</ele>
        <time>2018-08-13T10:28:07Z</time>
      </trkpt>
      <trkpt lat="42.92767" lon="1.31644">
        <ele>956</ele>
        <time>2018-08-13T10:28:20Z</time>
      </trkpt>
      <trkpt lat="42.92763" lon="1.31659">
        <ele>956</ele>
        <time>2018-08-13T10:28:45Z</time>
      </trkpt>
      <trkpt lat="42.92767" lon="1.31673">
        <ele>957</ele>
        <time>2018-08-13T10:29:21Z</time>
      </trkpt>
      <trkpt lat="42.92771" lon="1.31684">
        <ele>964</ele>
        <time>2018-08-13T10:29:45Z</time>
      </trkpt>
      <trkpt lat="42.92769" lon="1.31701">
        <ele>964</ele>
        <time>2018-08-13T10:30:17Z</time>
      </trkpt>
      <trkpt lat="42.92767" lon="1.31713">
        <ele>963</ele>
        <time>2018-08-13T10:31:05Z</time>
      </trkpt>
      <trkpt lat="42.92764" lon="1.31727">
        <ele>962</ele>
        <time>2018-08-13T10:32:06Z</time>
      </trkpt>
      <trkpt lat="42.92764" lon="1.3174">
        <ele>960</ele>
        <time>2018-08-13T10:32:19Z</time>
      </trkpt>
      <trkpt lat="42.92758" lon="1.3175">
        <ele>957</ele>
        <time>2018-08-13T10:32:37Z</time>
      </trkpt>
      <trkpt lat="42.92756" lon="1.31764">
        <ele>953</ele>
        <time>2018-08-13T10:33:07Z</time>
      </trkpt>
      <trkpt lat="42.92754" lon="1.31766">
        <ele>949</ele>
        <time>2018-08-13T10:34:09Z</time>
      </trkpt>
      <trkpt lat="42.9274" lon="1.31794">
        <ele>950</ele>
        <time>2018-08-13T10:34:32Z</time>
      </trkpt>
      <trkpt lat="42.92743" lon="1.31782">
        <ele>948</ele>
        <time>2018-08-13T10:34:38Z</time>
      </trkpt>
      <trkpt lat="42.92744" lon="1.31769">
        <ele>947</ele>
        <time>2018-08-13T10:34:43Z</time>
      </trkpt>
      <trkpt lat="42.92735" lon="1.31765">
        <ele>942</ele>
        <time>2018-08-13T10:35:07Z</time>
      </trkpt>
      <trkpt lat="42.92714" lon="1.31767">
        <ele>936</ele>
        <time>2018-08-13T10:36:23Z</time>
      </trkpt>
      <trkpt lat="42.92711" lon="1.31776">
        <ele>933</ele>
        <time>2018-08-13T10:37:25Z</time>
      </trkpt>
      <trkpt lat="42.92715" lon="1.31781">
        <ele>932</ele>
        <time>2018-08-13T10:38:49Z</time>
      </trkpt>
      <trkpt lat="42.92711" lon="1.31791">
        <ele>930</ele>
        <time>2018-08-13T10:39:01Z</time>
      </trkpt>
      <trkpt lat="42.92717" lon="1.31798">
        <ele>928</ele>
        <time>2018-08-13T10:39:21Z</time>
      </trkpt>
      <trkpt lat="42.9272" lon="1.31802">
        <ele>927</ele>
        <time>2018-08-13T10:39:25Z</time>
      </trkpt>
      <trkpt lat="42.9272" lon="1.31809">
        <ele>927</ele>
        <time>2018-08-13T10:39:29Z</time>
      </trkpt>
      <trkpt lat="42.92718" lon="1.3182">
        <ele>926</ele>
        <time>2018-08-13T10:39:36Z</time>
      </trkpt>
      <trkpt lat="42.92717" lon="1.31831">
        <ele>926</ele>
        <time>2018-08-13T10:39:47Z</time>
      </trkpt>
      <trkpt lat="42.92719" lon="1.31838">
        <ele>926</ele>
        <time>2018-08-13T10:39:54Z</time>
      </trkpt>
      <trkpt lat="42.92716" lon="1.31859">
        <ele>925</ele>
        <time>2018-08-13T10:40:10Z</time>
      </trkpt>
      <trkpt lat="42.92716" lon="1.31872">
        <ele>923</ele>
        <time>2018-08-13T10:40:17Z</time>
      </trkpt>
      <trkpt lat="42.92725" lon="1.31901">
        <ele>922</ele>
        <time>2018-08-13T10:40:43Z</time>
      </trkpt>
      <trkpt lat="42.9273" lon="1.31911">
        <ele>923</ele>
        <time>2018-08-13T10:40:55Z</time>
      </trkpt>
      <trkpt lat="42.92735" lon="1.31926">
        <ele>922</ele>
        <time>2018-08-13T10:41:09Z</time>
      </trkpt>
      <trkpt lat="42.92744" lon="1.31937">
        <ele>921</ele>
        <time>2018-08-13T10:41:22Z</time>
      </trkpt>
      <trkpt lat="42.92753" lon="1.31939">
        <ele>921</ele>
        <time>2018-08-13T10:41:28Z</time>
      </trkpt>
      <trkpt lat="42.92776" lon="1.31944">
        <ele>923</ele>
        <time>2018-08-13T10:41:54Z</time>
      </trkpt>
      <trkpt lat="42.92798" lon="1.31959">
        <ele>923</ele>
        <time>2018-08-13T10:42:25Z</time>
      </trkpt>
      <trkpt lat="42.92799" lon="1.31953">
        <ele>925</ele>
        <time>2018-08-13T10:43:09Z</time>
      </trkpt>
      <trkpt lat="42.92794" lon="1.3196">
        <ele>925</ele>
        <time>2018-08-13T10:43:21Z</time>
      </trkpt>
      <trkpt lat="42.9279" lon="1.31972">
        <ele>926</ele>
        <time>2018-08-13T10:43:34Z</time>
      </trkpt>
      <trkpt lat="42.92779" lon="1.3197">
        <ele>926</ele>
        <time>2018-08-13T10:43:43Z</time>
      </trkpt>
      <trkpt lat="42.92773" lon="1.31989">
        <ele>926</ele>
        <time>2018-08-13T10:43:58Z</time>
      </trkpt>
      <trkpt lat="42.92766" lon="1.31996">
        <ele>927</ele>
        <time>2018-08-13T10:44:06Z</time>
      </trkpt>
      <trkpt lat="42.92762" lon="1.3201">
        <ele>927</ele>
        <time>2018-08-13T10:44:15Z</time>
      </trkpt>
      <trkpt lat="42.92761" lon="1.32022">
        <ele>928</ele>
        <time>2018-08-13T10:44:20Z</time>
      </trkpt>
      <trkpt lat="42.92755" lon="1.32032">
        <ele>929</ele>
        <time>2018-08-13T10:44:27Z</time>
      </trkpt>
      <trkpt lat="42.92747" lon="1.32037">
        <ele>929</ele>
        <time>2018-08-13T10:44:35Z</time>
      </trkpt>
      <trkpt lat="42.92738" lon="1.32047">
        <ele>930</ele>
        <time>2018-08-13T10:44:53Z</time>
      </trkpt>
      <trkpt lat="42.92728" lon="1.32051">
        <ele>931</ele>
        <time>2018-08-13T10:45:01Z</time>
      </trkpt>
      <trkpt lat="42.92725" lon="1.32062">
        <ele>932</ele>
        <time>2018-08-13T10:45:11Z</time>
      </trkpt>
      <trkpt lat="42.92702" lon="1.32078">
        <ele>932</ele>
        <time>2018-08-13T10:45:34Z</time>
      </trkpt>
      <trkpt lat="42.92696" lon="1.32091">
        <ele>933</ele>
        <time>2018-08-13T10:45:46Z</time>
      </trkpt>
      <trkpt lat="42.92692" lon="1.32095">
        <ele>933</ele>
        <time>2018-08-13T10:45:51Z</time>
      </trkpt>
      <trkpt lat="42.92687" lon="1.321">
        <ele>933</ele>
        <time>2018-08-13T10:45:57Z</time>
      </trkpt>
      <trkpt lat="42.92683" lon="1.32105">
        <ele>934</ele>
        <time>2018-08-13T10:46:01Z</time>
      </trkpt>
      <trkpt lat="42.92679" lon="1.32108">
        <ele>933</ele>
        <time>2018-08-13T10:46:05Z</time>
      </trkpt>
      <trkpt lat="42.92667" lon="1.32123">
        <ele>933</ele>
        <time>2018-08-13T10:46:20Z</time>
      </trkpt>
      <trkpt lat="42.9267" lon="1.32133">
        <ele>933</ele>
        <time>2018-08-13T10:46:30Z</time>
      </trkpt>
      <trkpt lat="42.92674" lon="1.32137">
        <ele>933</ele>
        <time>2018-08-13T10:46:35Z</time>
      </trkpt>
      <trkpt lat="42.92678" lon="1.32142">
        <ele>933</ele>
        <time>2018-08-13T10:46:40Z</time>
      </trkpt>
      <trkpt lat="42.9269" lon="1.32155">
        <ele>932</ele>
        <time>2018-08-13T10:46:53Z</time>
      </trkpt>
      <trkpt lat="42.92714" lon="1.32197">
        <ele>929</ele>
        <time>2018-08-13T10:47:34Z</time>
      </trkpt>
      <trkpt lat="42.9272" lon="1.32207">
        <ele>928</ele>
        <time>2018-08-13T10:47:42Z</time>
      </trkpt>
      <trkpt lat="42.92729" lon="1.32215">
        <ele>927</ele>
        <time>2018-08-13T10:47:52Z</time>
      </trkpt>
      <trkpt lat="42.92732" lon="1.3222">
        <ele>927</ele>
        <time>2018-08-13T10:47:56Z</time>
      </trkpt>
      <trkpt lat="42.92735" lon="1.32225">
        <ele>927</ele>
        <time>2018-08-13T10:48:00Z</time>
      </trkpt>
      <trkpt lat="42.92736" lon="1.32231">
        <ele>927</ele>
        <time>2018-08-13T10:48:04Z</time>
      </trkpt>
      <trkpt lat="42.92736" lon="1.32246">
        <ele>927</ele>
        <time>2018-08-13T10:48:17Z</time>
      </trkpt>
      <trkpt lat="42.92735" lon="1.32252">
        <ele>926</ele>
        <time>2018-08-13T10:48:22Z</time>
      </trkpt>
      <trkpt lat="42.92739" lon="1.32266">
        <ele>926</ele>
        <time>2018-08-13T10:48:33Z</time>
      </trkpt>
      <trkpt lat="42.9274" lon="1.32272">
        <ele>925</ele>
        <time>2018-08-13T10:48:37Z</time>
      </trkpt>
      <trkpt lat="42.92752" lon="1.32295">
        <ele>925</ele>
        <time>2018-08-13T10:48:55Z</time>
      </trkpt>
      <trkpt lat="42.92753" lon="1.32308">
        <ele>925</ele>
        <time>2018-08-13T10:49:09Z</time>
      </trkpt>
      <trkpt lat="42.92756" lon="1.32313">
        <ele>925</ele>
        <time>2018-08-13T10:49:13Z</time>
      </trkpt>
      <trkpt lat="42.9276" lon="1.32318">
        <ele>925</ele>
        <time>2018-08-13T10:49:16Z</time>
      </trkpt>
      <trkpt lat="42.92762" lon="1.32324">
        <ele>925</ele>
        <time>2018-08-13T10:49:21Z</time>
      </trkpt>
      <trkpt lat="42.92767" lon="1.32335">
        <ele>926</ele>
        <time>2018-08-13T10:49:31Z</time>
      </trkpt>
      <trkpt lat="42.92774" lon="1.32341">
        <ele>927</ele>
        <time>2018-08-13T10:49:41Z</time>
      </trkpt>
      <trkpt lat="42.92778" lon="1.32351">
        <ele>928</ele>
        <time>2018-08-13T10:49:52Z</time>
      </trkpt>
      <trkpt lat="42.9278" lon="1.32357">
        <ele>930</ele>
        <time>2018-08-13T10:50:17Z</time>
      </trkpt>
      <trkpt lat="42.92781" lon="1.32365">
        <ele>931</ele>
        <time>2018-08-13T10:50:35Z</time>
      </trkpt>
      <trkpt lat="42.92778" lon="1.32371">
        <ele>931</ele>
        <time>2018-08-13T10:50:53Z</time>
      </trkpt>
      <trkpt lat="42.92768" lon="1.32364">
        <ele>932</ele>
        <time>2018-08-13T10:51:11Z</time>
      </trkpt>
      <trkpt lat="42.92743" lon="1.32377">
        <ele>935</ele>
        <time>2018-08-13T10:51:45Z</time>
      </trkpt>
      <trkpt lat="42.92738" lon="1.32378">
        <ele>936</ele>
        <time>2018-08-13T10:51:49Z</time>
      </trkpt>
      <trkpt lat="42.92733" lon="1.32379">
        <ele>937</ele>
        <time>2018-08-13T10:51:58Z</time>
      </trkpt>
      <trkpt lat="42.92725" lon="1.3238">
        <ele>938</ele>
        <time>2018-08-13T10:52:10Z</time>
      </trkpt>
      <trkpt lat="42.92718" lon="1.32384">
        <ele>940</ele>
        <time>2018-08-13T10:52:22Z</time>
      </trkpt>
      <trkpt lat="42.92714" lon="1.32388">
        <ele>941</ele>
        <time>2018-08-13T10:52:40Z</time>
      </trkpt>
      <trkpt lat="42.92709" lon="1.3239">
        <ele>942</ele>
        <time>2018-08-13T10:52:47Z</time>
      </trkpt>
      <trkpt lat="42.92702" lon="1.32396">
        <ele>944</ele>
        <time>2018-08-13T10:53:10Z</time>
      </trkpt>
      <trkpt lat="42.92698" lon="1.32396">
        <ele>944</ele>
        <time>2018-08-13T10:53:14Z</time>
      </trkpt>
      <trkpt lat="42.92693" lon="1.324">
        <ele>945</ele>
        <time>2018-08-13T10:53:25Z</time>
      </trkpt>
      <trkpt lat="42.92687" lon="1.32406">
        <ele>947</ele>
        <time>2018-08-13T10:53:43Z</time>
      </trkpt>
      <trkpt lat="42.92681" lon="1.32408">
        <ele>949</ele>
        <time>2018-08-13T10:53:55Z</time>
      </trkpt>
      <trkpt lat="42.92676" lon="1.32415">
        <ele>950</ele>
        <time>2018-08-13T10:54:07Z</time>
      </trkpt>
      <trkpt lat="42.92672" lon="1.32421">
        <ele>951</ele>
        <time>2018-08-13T10:54:19Z</time>
      </trkpt>
      <trkpt lat="42.92668" lon="1.32419">
        <ele>952</ele>
        <time>2018-08-13T10:54:31Z</time>
      </trkpt>
      <trkpt lat="42.92665" lon="1.32427">
        <ele>955</ele>
        <time>2018-08-13T10:54:55Z</time>
      </trkpt>
      <trkpt lat="42.92653" lon="1.32431">
        <ele>956</ele>
        <time>2018-08-13T10:55:13Z</time>
      </trkpt>
      <trkpt lat="42.92649" lon="1.32438">
        <ele>957</ele>
        <time>2018-08-13T10:55:24Z</time>
      </trkpt>
      <trkpt lat="42.9264" lon="1.32438">
        <ele>957</ele>
        <time>2018-08-13T10:55:38Z</time>
      </trkpt>
      <trkpt lat="42.92636" lon="1.32441">
        <ele>957</ele>
        <time>2018-08-13T10:55:44Z</time>
      </trkpt>
      <trkpt lat="42.9263" lon="1.32449">
        <ele>958</ele>
        <time>2018-08-13T10:55:54Z</time>
      </trkpt>
      <trkpt lat="42.92626" lon="1.32456">
        <ele>958</ele>
        <time>2018-08-13T10:56:04Z</time>
      </trkpt>
      <trkpt lat="42.92621" lon="1.32459">
        <ele>958</ele>
        <time>2018-08-13T10:56:14Z</time>
      </trkpt>
      <trkpt lat="42.92614" lon="1.32464">
        <ele>959</ele>
        <time>2018-08-13T10:56:24Z</time>
      </trkpt>
      <trkpt lat="42.92607" lon="1.32462">
        <ele>960</ele>
        <time>2018-08-13T10:56:36Z</time>
      </trkpt>
      <trkpt lat="42.92589" lon="1.32472">
        <ele>961</ele>
        <time>2018-08-13T10:57:00Z</time>
      </trkpt>
      <trkpt lat="42.92587" lon="1.32479">
        <ele>962</ele>
        <time>2018-08-13T10:57:08Z</time>
      </trkpt>
      <trkpt lat="42.92564" lon="1.32486">
        <ele>967</ele>
        <time>2018-08-13T10:57:42Z</time>
      </trkpt>
      <trkpt lat="42.92558" lon="1.32488">
        <ele>968</ele>
        <time>2018-08-13T10:57:54Z</time>
      </trkpt>
      <trkpt lat="42.92555" lon="1.32496">
        <ele>970</ele>
        <time>2018-08-13T10:58:06Z</time>
      </trkpt>
      <trkpt lat="42.9255" lon="1.32498">
        <ele>972</ele>
        <time>2018-08-13T10:58:24Z</time>
      </trkpt>
      <trkpt lat="42.92543" lon="1.32501">
        <ele>974</ele>
        <time>2018-08-13T10:58:36Z</time>
      </trkpt>
      <trkpt lat="42.92527" lon="1.32501">
        <ele>976</ele>
        <time>2018-08-13T10:58:58Z</time>
      </trkpt>
      <trkpt lat="42.92521" lon="1.32501">
        <ele>977</ele>
        <time>2018-08-13T10:59:10Z</time>
      </trkpt>
      <trkpt lat="42.92518" lon="1.32506">
        <ele>978</ele>
        <time>2018-08-13T10:59:16Z</time>
      </trkpt>
      <trkpt lat="42.92505" lon="1.32513">
        <ele>981</ele>
        <time>2018-08-13T10:59:40Z</time>
      </trkpt>
    </trkseg>
  </trk>
</gpx>